Wetterdaten: Dienstag, 29.09.2020
Datum Zeit Temp. Aussen Temp. o. S. Temp +5cm Feuchte Auss Luftdruck Regen Sonnenschein Regendauer Solar Windben Empfang
29.09.2020 00:00 12,0 C 11,1 C 11,1 C 90 % 1012,9 hPa 0,0 l/m 0 min 0 min 0 W/m 9,7 km/h (2 Bft) 93,62 %
29.09.2020 00:02 12,0 C 11,1 C 11,1 C 90 % 1012,9 hPa 0,0 l/m 0 min 0 min 0 W/m 6,4 km/h (2 Bft) 97,22 %
29.09.2020 00:04 12,0 C 11,1 C 11,1 C 90 % 1013,0 hPa 0,0 l/m 0 min 0 min 0 W/m 0,0 km/h (0 Bft) 95,74 %
29.09.2020 00:08 12,0 C 11,1 C 11,1 C 90 % 1012,9 hPa 0,0 l/m 0 min 0 min 0 W/m 6,4 km/h (2 Bft) 95,74 %
29.09.2020 00:10 12,0 C 11,1 C 11,1 C 90 % 1012,9 hPa 0,0 l/m 0 min 0 min 0 W/m 12,9 km/h (3 Bft) 95,74 %
29.09.2020 00:12 12,0 C 11,1 C 11,1 C 90 % 1012,9 hPa 0,0 l/m 0 min 0 min 0 W/m 3,2 km/h (1 Bft) 93,62 %
29.09.2020 00:14 12,0 C 11,1 C 11,1 C 90 % 1012,9 hPa 0,0 l/m 0 min 0 min 0 W/m 16,1 km/h (3 Bft) 97,83 %
29.09.2020 00:16 12,0 C 11,1 C 11,1 C 90 % 1012,9 hPa 0,0 l/m 0 min 0 min 0 W/m 0,0 km/h (0 Bft) 95,74 %
29.09.2020 00:18 12,0 C 11,1 C 11,1 C 90 % 1012,9 hPa 0,0 l/m 0 min 0 min 0 W/m 6,4 km/h (2 Bft) 95,74 %
29.09.2020 00:20 12,0 C 11,1 C 11,1 C 90 % 1012,9 hPa 0,0 l/m 0 min 0 min 0 W/m 12,9 km/h (3 Bft) 100,00 %
29.09.2020 00:22 11,9 C 11,1 C 11,1 C 89 % 1012,9 hPa 0,0 l/m 0 min 0 min 0 W/m 12,9 km/h (3 Bft) 97,87 %
29.09.2020 00:24 11,9 C 11,1 C 11,1 C 89 % 1012,9 hPa 0,0 l/m 0 min 0 min 0 W/m 3,2 km/h (1 Bft) 95,74 %
29.09.2020 00:26 11,9 C 11,1 C 10,6 C 89 % 1012,9 hPa 0,0 l/m 0 min 0 min 0 W/m 3,2 km/h (1 Bft) 97,83 %
29.09.2020 00:28 11,9 C 11,1 C 10,6 C 89 % 1012,9 hPa 0,0 l/m 0 min 0 min 0 W/m 16,1 km/h (3 Bft) 97,87 %
29.09.2020 00:30 11,9 C 11,1 C 10,6 C 89 % 1012,9 hPa 0,0 l/m 0 min 0 min 0 W/m 12,9 km/h (3 Bft) 95,74 %
29.09.2020 00:32 11,9 C 11,1 C 10,6 C 89 % 1012,9 hPa 0,0 l/m 0 min 0 min 0 W/m 3,2 km/h (1 Bft) 93,62 %
29.09.2020 00:34 11,9 C 11,1 C 10,6 C 89 % 1012,9 hPa 0,0 l/m 0 min 0 min 0 W/m 3,2 km/h (1 Bft) 95,74 %
29.09.2020 00:36 11,9 C 11,1 C 10,6 C 89 % 1012,9 hPa 0,0 l/m 0 min 0 min 0 W/m 6,4 km/h (2 Bft) 95,74 %
29.09.2020 00:38 11,9 C 11,1 C 10,6 C 89 % 1013,0 hPa 0,0 l/m 0 min 0 min 0 W/m 3,2 km/h (1 Bft) 95,65 %
29.09.2020 00:40 11,9 C 11,1 C 10,6 C 89 % 1013,0 hPa 0,0 l/m 0 min 0 min 0 W/m 6,4 km/h (2 Bft) 93,62 %
29.09.2020 00:42 11,9 C 11,1 C 10,6 C 89 % 1013,0 hPa 0,0 l/m 0 min 0 min 0 W/m 6,4 km/h (2 Bft) 95,74 %
29.09.2020 00:44 11,9 C 11,1 C 10,6 C 89 % 1013,0 hPa 0,0 l/m 0 min 0 min 0 W/m 3,2 km/h (1 Bft) 95,74 %
29.09.2020 00:46 11,9 C 11,1 C 10,6 C 89 % 1013,0 hPa 0,0 l/m 0 min 0 min 0 W/m 0,0 km/h (0 Bft) 95,74 %
29.09.2020 00:48 11,9 C 11,1 C 10,6 C 89 % 1012,9 hPa 0,0 l/m 0 min 0 min 0 W/m 6,4 km/h (2 Bft) 95,74 %
29.09.2020 00:50 11,9 C 11,1 C 10,6 C 89 % 1012,9 hPa 0,0 l/m 0 min 0 min 0 W/m 6,4 km/h (2 Bft) 93,48 %
29.09.2020 00:52 11,9 C 11,1 C 10,6 C 89 % 1012,9 hPa 0,0 l/m 0 min 0 min 0 W/m 6,4 km/h (2 Bft) 93,62 %
29.09.2020 00:54 11,9 C 11,1 C 10,6 C 89 % 1012,9 hPa 0,0 l/m 0 min 0 min 0 W/m 6,4 km/h (2 Bft) 95,74 %
29.09.2020 00:56 11,9 C 11,1 C 10,6 C 89 % 1012,8 hPa 0,0 l/m 0 min 0 min 0 W/m 0,0 km/h (0 Bft) 95,74 %
29.09.2020 00:58 11,9 C 11,1 C 10,6 C 90 % 1012,8 hPa 0,0 l/m 0 min 0 min 0 W/m 12,9 km/h (3 Bft) 93,62 %
29.09.2020 01:00 11,9 C 11,1 C 10,6 C 90 % 1012,8 hPa 0,0 l/m 0 min 0 min 0 W/m 6,4 km/h (2 Bft) 95,74 %
29.09.2020 01:02 11,9 C 11,1 C 10,6 C 90 % 1012,8 hPa 0,0 l/m 0 min 0 min 0 W/m 3,2 km/h (1 Bft) 97,87 %
29.09.2020 01:04 11,9 C 11,1 C 10,6 C 90 % 1012,7 hPa 0,0 l/m 0 min 0 min 0 W/m 3,2 km/h (1 Bft) 97,87 %
29.09.2020 01:06 11,9 C 11,1 C 10,6 C 90 % 1012,8 hPa 0,0 l/m 0 min 0 min 0 W/m 3,2 km/h (1 Bft) 95,74 %
29.09.2020 01:08 11,9 C 11,1 C 10,6 C 90 % 1012,8 hPa 0,0 l/m 0 min 0 min 0 W/m 16,1 km/h (3 Bft) 97,56 %
29.09.2020 01:10 11,9 C 11,1 C 10,6 C 90 % 1012,8 hPa 0,0 l/m 0 min 0 min 0 W/m 3,2 km/h (1 Bft) 97,87 %
29.09.2020 01:12 11,9 C 11,1 C 10,6 C 90 % 1012,8 hPa 0,0 l/m 0 min 0 min 0 W/m 6,4 km/h (2 Bft) 95,74 %
29.09.2020 01:14 11,8 C 11,1 C 10,6 C 90 % 1012,8 hPa 0,0 l/m 0 min 0 min 0 W/m 6,4 km/h (2 Bft) 97,87 %
29.09.2020 01:16 11,8 C 11,1 C 10,6 C 90 % 1012,9 hPa 0,0 l/m 0 min 0 min 0 W/m 6,4 km/h (2 Bft) 97,83 %
29.09.2020 01:18 11,8 C 11,1 C 10,6 C 90 % 1012,9 hPa 0,0 l/m 0 min 0 min 0 W/m 3,2 km/h (1 Bft) 91,49 %
29.09.2020 01:20 11,8 C 11,1 C 10,6 C 90 % 1012,9 hPa 0,0 l/m 0 min 0 min 0 W/m 6,4 km/h (2 Bft) 95,74 %
29.09.2020 01:22 11,8 C 11,1 C 10,6 C 90 % 1012,9 hPa 0,0 l/m 0 min 0 min 0 W/m 12,9 km/h (3 Bft) 100,00 %
29.09.2020 01:24 11,8 C 11,1 C 10,6 C 90 % 1012,9 hPa 0,0 l/m 0 min 0 min 0 W/m 0,0 km/h (0 Bft) 100,00 %
29.09.2020 01:26 11,8 C 11,1 C 10,6 C 90 % 1012,9 hPa 0,0 l/m 0 min 0 min 0 W/m 3,2 km/h (1 Bft) 100,00 %
29.09.2020 01:28 11,8 C 11,1 C 10,6 C 90 % 1012,9 hPa 0,0 l/m 0 min 0 min 0 W/m 0,0 km/h (0 Bft) 100,00 %
29.09.2020 01:30 11,8 C 11,1 C 10,6 C 90 % 1013,0 hPa 0,0 l/m 0 min 0 min 0 W/m 0,0 km/h (0 Bft) 97,87 %
29.09.2020 01:32 11,8 C 11,1 C 10,6 C 90 % 1012,9 hPa 0,0 l/m 0 min 0 min 0 W/m 0,0 km/h (0 Bft) 98,31 %
29.09.2020 01:34 11,8 C 11,1 C 10,6 C 90 % 1012,9 hPa 0,0 l/m 0 min 0 min 0 W/m 0,0 km/h (0 Bft) 100,00 %
29.09.2020 01:36 11,8 C 11,1 C 10,6 C 90 % 1012,9 hPa 0,0 l/m 0 min 0 min 0 W/m 0,0 km/h (0 Bft) 100,00 %
29.09.2020 01:38 11,8 C 11,1 C 10,6 C 90 % 1013,0 hPa 0,0 l/m 0 min 0 min 0 W/m 0,0 km/h (0 Bft) 100,00 %
29.09.2020 01:40 11,8 C 10,6 C 10,6 C 90 % 1012,9 hPa 0,0 l/m 0 min 0 min 0 W/m 6,4 km/h (2 Bft) 97,87 %
29.09.2020 01:42 11,8 C 10,6 C 10,6 C 90 % 1012,9 hPa 0,0 l/m 0 min 0 min 0 W/m 6,4 km/h (2 Bft) 100,00 %
29.09.2020 01:44 11,8 C 10,6 C 10,6 C 90 % 1012,9 hPa 0,0 l/m 0 min 0 min 0 W/m 6,4 km/h (2 Bft) 100,00 %
29.09.2020 01:46 11,8 C 10,6 C 10,6 C 90 % 1012,9 hPa 0,0 l/m 0 min 0 min 0 W/m 3,2 km/h (1 Bft) 100,00 %
29.09.2020 01:48 11,7 C 10,6 C 10,6 C 90 % 1012,8 hPa 0,0 l/m 0 min 0 min 0 W/m 6,4 km/h (2 Bft) 100,00 %
29.09.2020 01:50 11,7 C 10,6 C 10,6 C 90 % 1012,9 hPa 0,0 l/m 0 min 0 min 0 W/m 3,2 km/h (1 Bft) 100,00 %
29.09.2020 01:52 11,7 C 10,6 C 10,6 C 90 % 1012,9 hPa 0,0 l/m 0 min 0 min 0 W/m 3,2 km/h (1 Bft) 100,00 %
29.09.2020 01:54 11,7 C 10,6 C 10,6 C 90 % 1012,9 hPa 0,0 l/m 0 min 0 min 0 W/m 6,4 km/h (2 Bft) 100,00 %
29.09.2020 01:56 11,7 C 10,6 C 10,6 C 90 % 1012,8 hPa 0,0 l/m 0 min 0 min 0 W/m 6,4 km/h (2 Bft) 100,00 %
29.09.2020 01:58 11,7 C 10,6 C 10,6 C 90 % 1012,8 hPa 0,0 l/m 0 min 0 min 0 W/m 12,9 km/h (3 Bft) 97,14 %
29.09.2020 02:00 11,7 C 10,6 C 10,6 C 90 % 1012,8 hPa 0,0 l/m 0 min 0 min 0 W/m 6,4 km/h (2 Bft) 100,00 %
29.09.2020 02:02 11,7 C 10,6 C 10,6 C 90 % 1012,8 hPa 0,0 l/m 0 min 0 min 0 W/m 3,2 km/h (1 Bft) 100,00 %
29.09.2020 02:04 11,6 C 10,6 C 10,6 C 90 % 1012,8 hPa 0,0 l/m 0 min 0 min 0 W/m 6,4 km/h (2 Bft) 100,00 %
29.09.2020 02:06 11,6 C 10,6 C 10,6 C 91 % 1012,8 hPa 0,0 l/m 0 min 0 min 0 W/m 16,1 km/h (3 Bft) 100,00 %
29.09.2020 02:08 11,6 C 10,6 C 10,6 C 91 % 1012,9 hPa 0,0 l/m 0 min 0 min 0 W/m 12,9 km/h (3 Bft) 97,87 %
29.09.2020 02:10 11,6 C 10,6 C 10,6 C 91 % 1012,9 hPa 0,0 l/m 0 min 0 min 0 W/m 0,0 km/h (0 Bft) 100,00 %
29.09.2020 02:12 11,6 C 10,6 C 10,6 C 91 % 1012,9 hPa 0,0 l/m 0 min 0 min 0 W/m 0,0 km/h (0 Bft) 97,87 %
29.09.2020 02:14 11,6 C 10,6 C 10,6 C 91 % 1012,9 hPa 0,0 l/m 0 min 0 min 0 W/m 3,2 km/h (1 Bft) 100,00 %
29.09.2020 02:16 11,6 C 10,6 C 10,6 C 91 % 1012,9 hPa 0,0 l/m 0 min 0 min 0 W/m 12,9 km/h (3 Bft) 95,65 %
29.09.2020 02:18 11,6 C 10,6 C 10,6 C 91 % 1012,9 hPa 0,0 l/m 0 min 0 min 0 W/m 3,2 km/h (1 Bft) 100,00 %
29.09.2020 02:20 11,6 C 10,6 C 10,6 C 91 % 1012,8 hPa 0,0 l/m 0 min 0 min 0 W/m 3,2 km/h (1 Bft) 100,00 %
29.09.2020 02:22 11,6 C 10,6 C 10,6 C 91 % 1012,9 hPa 0,0 l/m 0 min 0 min 0 W/m 3,2 km/h (1 Bft) 95,74 %
29.09.2020 02:24 11,6 C 10,6 C 10,6 C 91 % 1012,8 hPa 0,0 l/m 0 min 0 min 0 W/m 3,2 km/h (1 Bft) 96,08 %
29.09.2020 02:26 11,5 C 10,6 C 10,6 C 91 % 1012,9 hPa 0,0 l/m 0 min 0 min 0 W/m 3,2 km/h (1 Bft) 93,33 %
29.09.2020 02:28 11,5 C 10,6 C 10,6 C 91 % 1012,9 hPa 0,0 l/m 0 min 0 min 0 W/m 12,9 km/h (3 Bft) 95,74 %
29.09.2020 02:30 11,5 C 10,6 C 10,0 C 91 % 1013,0 hPa 0,0 l/m 0 min 0 min 0 W/m 6,4 km/h (2 Bft) 97,87 %
29.09.2020 02:32 11,5 C 10,6 C 10,6 C 91 % 1013,0 hPa 0,0 l/m 0 min 0 min 0 W/m 0,0 km/h (0 Bft) 97,87 %
29.09.2020 02:34 11,5 C 10,6 C 10,0 C 91 % 1013,0 hPa 0,0 l/m 0 min 0 min 0 W/m 0,0 km/h (0 Bft) 97,87 %
29.09.2020 02:36 11,4 C 10,6 C 10,0 C 91 % 1013,0 hPa 0,0 l/m 0 min 0 min 0 W/m 0,0 km/h (0 Bft) 97,87 %
29.09.2020 02:38 11,4 C 10,6 C 10,0 C 91 % 1013,0 hPa 0,0 l/m 0 min 0 min 0 W/m 3,2 km/h (1 Bft) 97,83 %
29.09.2020 02:40 11,4 C 10,6 C 10,0 C 91 % 1013,0 hPa 0,0 l/m 0 min 0 min 0 W/m 12,9 km/h (3 Bft) 97,87 %
29.09.2020 02:42 11,4 C 10,6 C 10,0 C 91 % 1013,0 hPa 0,0 l/m 0 min 0 min 0 W/m 6,4 km/h (2 Bft) 95,74 %
29.09.2020 02:44 11,4 C 10,6 C 10,0 C 91 % 1013,0 hPa 0,0 l/m 0 min 0 min 0 W/m 0,0 km/h (0 Bft) 95,74 %
29.09.2020 02:46 11,4 C 10,6 C 10,0 C 91 % 1013,0 hPa 0,0 l/m 0 min 0 min 0 W/m 3,2 km/h (1 Bft) 95,74 %
29.09.2020 02:48 11,4 C 10,6 C 10,0 C 91 % 1013,0 hPa 0,0 l/m 0 min 0 min 0 W/m 3,2 km/h (1 Bft) 97,87 %
29.09.2020 02:50 11,4 C 10,6 C 10,0 C 91 % 1013,0 hPa 0,0 l/m 0 min 0 min 0 W/m 0,0 km/h (0 Bft) 95,65 %
29.09.2020 02:52 11,4 C 10,6 C 10,0 C 91 % 1013,0 hPa 0,0 l/m 0 min 0 min 0 W/m 0,0 km/h (0 Bft) 95,74 %
29.09.2020 02:54 11,4 C 10,6 C 10,0 C 91 % 1013,0 hPa 0,0 l/m 0 min 0 min 0 W/m 0,0 km/h (0 Bft) 97,87 %
29.09.2020 02:56 11,4 C 10,6 C 10,0 C 91 % 1013,0 hPa 0,0 l/m 0 min 0 min 0 W/m 0,0 km/h (0 Bft) 97,87 %
29.09.2020 02:58 11,4 C 10,6 C 10,0 C 91 % 1013,0 hPa 0,0 l/m 0 min 0 min 0 W/m 0,0 km/h (0 Bft) 97,87 %
29.09.2020 03:00 11,4 C 10,6 C 10,0 C 92 % 1013,0 hPa 0,0 l/m 0 min 0 min 0 W/m 0,0 km/h (0 Bft) 100,00 %
29.09.2020 03:02 11,3 C 10,6 C 10,0 C 92 % 1013,0 hPa 0,0 l/m 0 min 0 min 0 W/m 0,0 km/h (0 Bft) 97,87 %
29.09.2020 03:04 11,3 C 10,6 C 10,0 C 92 % 1013,1 hPa 0,0 l/m 0 min 0 min 0 W/m 0,0 km/h (0 Bft) 97,87 %
29.09.2020 03:06 11,3 C 10,6 C 10,0 C 92 % 1013,0 hPa 0,0 l/m 0 min 0 min 0 W/m 0,0 km/h (0 Bft) 97,87 %
29.09.2020 03:08 11,3 C 10,6 C 10,0 C 92 % 1013,0 hPa 0,0 l/m 0 min 0 min 0 W/m 0,0 km/h (0 Bft) 100,00 %
29.09.2020 03:10 11,3 C 10,6 C 10,0 C 92 % 1013,1 hPa 0,0 l/m 0 min 0 min 0 W/m 0,0 km/h (0 Bft) 100,00 %
29.09.2020 03:12 11,3 C 10,6 C 10,0 C 92 % 1013,0 hPa 0,0 l/m 0 min 0 min 0 W/m 0,0 km/h (0 Bft) 97,83 %
29.09.2020 03:14 11,3 C 10,6 C 10,0 C 92 % 1013,0 hPa 0,0 l/m 0 min 0 min 0 W/m 0,0 km/h (0 Bft) 100,00 %
29.09.2020 03:16 11,3 C 10,6 C 10,0 C 92 % 1013,1 hPa 0,0 l/m 0 min 0 min 0 W/m 0,0 km/h (0 Bft) 100,00 %
29.09.2020 03:18 11,3 C 10,6 C 10,0 C 92 % 1013,1 hPa 0,0 l/m 0 min 0 min 0 W/m 0,0 km/h (0 Bft) 97,87 %
29.09.2020 03:20 11,3 C 10,6 C 10,0 C 92 % 1013,1 hPa 0,0 l/m 0 min 0 min 0 W/m 0,0 km/h (0 Bft) 97,87 %
29.09.2020 03:22 11,3 C 10,6 C 10,0 C 92 % 1013,2 hPa 0,0 l/m 0 min 0 min 0 W/m 0,0 km/h (0 Bft) 100,00 %
29.09.2020 03:24 11,3 C 10,6 C 10,0 C 92 % 1013,2 hPa 0,0 l/m 0 min 0 min 0 W/m 3,2 km/h (1 Bft) 97,83 %
29.09.2020 03:26 11,2 C 10,6 C 10,0 C 92 % 1013,2 hPa 0,0 l/m 0 min 0 min 0 W/m 3,2 km/h (1 Bft) 93,62 %
29.09.2020 03:28 11,3 C 10,6 C 10,0 C 92 % 1013,3 hPa 0,0 l/m 0 min 0 min 0 W/m 6,4 km/h (2 Bft) 97,87 %
29.09.2020 03:30 11,2 C 10,6 C 10,0 C 92 % 1013,3 hPa 0,0 l/m 0 min 0 min 0 W/m 6,4 km/h (2 Bft) 97,87 %
29.09.2020 03:32 11,2 C 10,6 C 10,0 C 92 % 1013,1 hPa 0,0 l/m 0 min 0 min 0 W/m 6,4 km/h (2 Bft) 97,87 %
29.09.2020 03:34 11,2 C 10,6 C 10,0 C 92 % 1013,2 hPa 0,0 l/m 0 min 0 min 0 W/m 3,2 km/h (1 Bft) 95,74 %
29.09.2020 03:36 11,2 C 10,6 C 10,0 C 92 % 1013,2 hPa 0,0 l/m 0 min 0 min 0 W/m 0,0 km/h (0 Bft) 95,65 %
29.09.2020 03:38 11,2 C 10,6 C 10,0 C 92 % 1013,1 hPa 0,0 l/m 0 min 0 min 0 W/m 3,2 km/h (1 Bft) 95,74 %
29.09.2020 03:40 11,2 C 10,6 C 10,0 C 92 % 1013,1 hPa 0,0 l/m 0 min 0 min 0 W/m 0,0 km/h (0 Bft) 95,74 %
29.09.2020 03:42 11,2 C 10,6 C 10,0 C 92 % 1013,1 hPa 0,0 l/m 0 min 0 min 0 W/m 0,0 km/h (0 Bft) 97,87 %
29.09.2020 03:44 11,2 C 10,6 C 10,0 C 92 % 1013,1 hPa 0,0 l/m 0 min 0 min 0 W/m 0,0 km/h (0 Bft) 93,62 %
29.09.2020 03:46 11,2 C 10,6 C 10,0 C 93 % 1013,2 hPa 0,0 l/m 0 min 0 min 0 W/m 3,2 km/h (1 Bft) 95,74 %
29.09.2020 03:48 11,2 C 10,6 C 10,0 C 93 % 1013,2 hPa 0,0 l/m 0 min 0 min 0 W/m 6,4 km/h (2 Bft) 95,65 %
29.09.2020 03:50 11,2 C 10,6 C 10,0 C 93 % 1013,2 hPa 0,0 l/m 0 min 0 min 0 W/m 12,9 km/h (3 Bft) 95,74 %
29.09.2020 03:52 11,2 C 10,6 C 10,0 C 93 % 1013,2 hPa 0,0 l/m 0 min 0 min 0 W/m 3,2 km/h (1 Bft) 93,62 %
29.09.2020 03:54 11,2 C 10,6 C 10,0 C 93 % 1013,1 hPa 0,0 l/m 0 min 0 min 0 W/m 6,4 km/h (2 Bft) 95,74 %
29.09.2020 03:56 11,2 C 10,6 C 10,0 C 93 % 1013,2 hPa 0,0 l/m 0 min 0 min 0 W/m 0,0 km/h (0 Bft) 95,74 %
29.09.2020 03:58 11,2 C 10,6 C 10,0 C 93 % 1013,2 hPa 0,0 l/m 0 min 0 min 0 W/m 3,2 km/h (1 Bft) 95,65 %
29.09.2020 04:00 11,2 C 10,6 C 10,0 C 93 % 1013,2 hPa 0,0 l/m 0 min 0 min 0 W/m 3,2 km/h (1 Bft) 95,74 %
29.09.2020 04:02 11,2 C 10,6 C 10,0 C 93 % 1013,2 hPa 0,0 l/m 0 min 0 min 0 W/m 0,0 km/h (0 Bft) 93,10 %
29.09.2020 04:04 11,2 C 10,6 C 10,0 C 93 % 1013,2 hPa 0,0 l/m 0 min 0 min 0 W/m 0,0 km/h (0 Bft) 95,74 %
29.09.2020 04:06 11,2 C 10,6 C 10,0 C 93 % 1013,2 hPa 0,0 l/m 0 min 0 min 0 W/m 0,0 km/h (0 Bft) 95,65 %
29.09.2020 04:08 11,2 C 10,6 C 10,0 C 93 % 1013,2 hPa 0,0 l/m 0 min 0 min 0 W/m 9,7 km/h (2 Bft) 97,87 %
29.09.2020 04:10 11,2 C 10,6 C 10,0 C 93 % 1013,2 hPa 0,0 l/m 0 min 0 min 0 W/m 3,2 km/h (1 Bft) 95,74 %
29.09.2020 04:12 11,2 C 10,6 C 10,0 C 93 % 1013,3 hPa 0,0 l/m 0 min 2 min 0 W/m 3,2 km/h (1 Bft) 97,87 %
29.09.2020 04:14 11,2 C 10,6 C 10,0 C 93 % 1013,3 hPa 0,0 l/m 0 min 2 min 0 W/m 3,2 km/h (1 Bft) 97,87 %
29.09.2020 04:16 11,2 C 10,0 C 10,0 C 93 % 1013,3 hPa 0,0 l/m 0 min 2 min 0 W/m 3,2 km/h (1 Bft) 97,87 %
29.09.2020 04:18 11,2 C 10,0 C 10,0 C 93 % 1013,3 hPa 0,0 l/m 0 min 0 min 0 W/m 0,0 km/h (0 Bft) 97,83 %
29.09.2020 04:20 11,2 C 10,0 C 10,0 C 93 % 1013,3 hPa 0,0 l/m 0 min 0 min 0 W/m 0,0 km/h (0 Bft) 95,74 %
29.09.2020 04:22 11,2 C 10,0 C 10,0 C 93 % 1013,3 hPa 0,0 l/m 0 min 0 min 0 W/m 0,0 km/h (0 Bft) 97,87 %
29.09.2020 04:24 11,2 C 10,0 C 10,0 C 93 % 1013,2 hPa 0,0 l/m 0 min 0 min 0 W/m 0,0 km/h (0 Bft) 100,00 %
29.09.2020 04:26 11,2 C 10,0 C 10,0 C 93 % 1013,3 hPa 0,0 l/m 0 min 0 min 0 W/m 0,0 km/h (0 Bft) 97,87 %
29.09.2020 04:28 11,2 C 10,0 C 10,0 C 93 % 1013,2 hPa 0,0 l/m 0 min 0 min 0 W/m 0,0 km/h (0 Bft) 97,83 %
29.09.2020 04:30 11,2 C 10,0 C 10,0 C 93 % 1013,3 hPa 0,0 l/m 0 min 2 min 0 W/m 0,0 km/h (0 Bft) 95,74 %
29.09.2020 04:32 11,2 C 10,0 C 10,0 C 93 % 1013,2 hPa 0,0 l/m 0 min 0 min 0 W/m 6,4 km/h (2 Bft) 97,87 %
29.09.2020 04:34 11,2 C 10,0 C 10,0 C 93 % 1013,2 hPa 0,0 l/m 0 min 0 min 0 W/m 3,2 km/h (1 Bft) 97,87 %
29.09.2020 04:36 11,2 C 10,0 C 10,0 C 93 % 1013,2 hPa 0,0 l/m 0 min 0 min 0 W/m 0,0 km/h (0 Bft) 97,87 %
29.09.2020 04:38 11,2 C 10,0 C 10,0 C 94 % 1013,2 hPa 0,0 l/m 0 min 0 min 0 W/m 3,2 km/h (1 Bft) 97,87 %
29.09.2020 04:40 11,2 C 10,0 C 10,0 C 94 % 1013,2 hPa 0,0 l/m 0 min 0 min 0 W/m 0,0 km/h (0 Bft) 100,00 %
29.09.2020 04:42 11,2 C 10,0 C 10,0 C 94 % 1013,3 hPa 0,0 l/m 0 min 0 min 0 W/m 6,4 km/h (2 Bft) 97,87 %
29.09.2020 04:44 11,2 C 10,0 C 10,0 C 94 % 1013,3 hPa 0,0 l/m 0 min 2 min 0 W/m 0,0 km/h (0 Bft) 100,00 %
29.09.2020 04:46 11,2 C 10,0 C 10,0 C 94 % 1013,4 hPa 0,0 l/m 0 min 0 min 0 W/m 3,2 km/h (1 Bft) 100,00 %
29.09.2020 04:48 11,2 C 10,0 C 10,0 C 93 % 1013,4 hPa 0,0 l/m 0 min 0 min 0 W/m 3,2 km/h (1 Bft) 97,87 %
29.09.2020 04:51 11,2 C 10,0 C 9,4 C 94 % 1013,4 hPa 0,0 l/m 0 min 0 min 0 W/m 6,4 km/h (2 Bft) 98,57 %
29.09.2020 04:52 11,2 C 10,0 C 9,4 C 94 % 1013,4 hPa 0,0 l/m 0 min 0 min 0 W/m 0,0 km/h (0 Bft) 95,65 %
29.09.2020 04:54 11,1 C 10,0 C 9,4 C 94 % 1013,3 hPa 0,0 l/m 0 min 0 min 0 W/m 3,2 km/h (1 Bft) 100,00 %
29.09.2020 04:56 11,1 C 10,0 C 9,4 C 94 % 1013,3 hPa 0,0 l/m 0 min 0 min 0 W/m 6,4 km/h (2 Bft) 100,00 %
29.09.2020 04:58 11,1 C 10,0 C 9,4 C 94 % 1013,4 hPa 0,0 l/m 0 min 0 min 0 W/m 3,2 km/h (1 Bft) 100,00 %
29.09.2020 05:00 11,1 C 10,0 C 9,4 C 94 % 1013,4 hPa 0,0 l/m 0 min 0 min 0 W/m 0,0 km/h (0 Bft) 95,74 %
29.09.2020 05:02 11,1 C 10,0 C 9,4 C 94 % 1013,4 hPa 0,0 l/m 0 min 0 min 0 W/m 3,2 km/h (1 Bft) 95,74 %
29.09.2020 05:04 11,1 C 10,0 C 9,4 C 94 % 1013,4 hPa 0,0 l/m 0 min 0 min 0 W/m 3,2 km/h (1 Bft) 97,83 %
29.09.2020 05:06 11,1 C 10,0 C 9,4 C 94 % 1013,4 hPa 0,0 l/m 0 min 0 min 0 W/m 0,0 km/h (0 Bft) 97,87 %
29.09.2020 05:08 11,1 C 10,0 C 9,4 C 94 % 1013,3 hPa 0,0 l/m 0 min 2 min 0 W/m 0,0 km/h (0 Bft) 97,87 %
29.09.2020 05:10 11,1 C 10,0 C 9,4 C 94 % 1013,3 hPa 0,0 l/m 0 min 2 min 0 W/m 0,0 km/h (0 Bft) 97,87 %
29.09.2020 05:12 11,1 C 10,0 C 9,4 C 94 % 1013,3 hPa 0,0 l/m 0 min 2 min 0 W/m 3,2 km/h (1 Bft) 95,74 %
29.09.2020 05:14 11,0 C 10,0 C 9,4 C 94 % 1013,4 hPa 0,0 l/m 0 min 0 min 0 W/m 3,2 km/h (1 Bft) 97,87 %
29.09.2020 05:16 11,0 C 10,0 C 9,4 C 94 % 1013,4 hPa 0,0 l/m 0 min 0 min 0 W/m 6,4 km/h (2 Bft) 95,65 %
29.09.2020 05:18 11,0 C 10,0 C 9,4 C 94 % 1013,4 hPa 0,0 l/m 0 min 0 min 0 W/m 0,0 km/h (0 Bft) 97,87 %
29.09.2020 05:20 11,0 C 9,4 C 9,4 C 94 % 1013,4 hPa 0,0 l/m 0 min 0 min 0 W/m 0,0 km/h (0 Bft) 97,87 %
29.09.2020 05:22 11,0 C 9,4 C 9,4 C 94 % 1013,4 hPa 0,0 l/m 0 min 0 min 0 W/m 0,0 km/h (0 Bft) 95,74 %
29.09.2020 05:24 11,0 C 9,4 C 9,4 C 94 % 1013,4 hPa 0,0 l/m 0 min 0 min 0 W/m 0,0 km/h (0 Bft) 97,87 %
29.09.2020 05:26 10,9 C 9,4 C 9,4 C 94 % 1013,5 hPa 0,0 l/m 0 min 0 min 0 W/m 0,0 km/h (0 Bft) 97,83 %
29.09.2020 05:28 11,0 C 10,0 C 9,4 C 94 % 1013,5 hPa 0,0 l/m 0 min 0 min 0 W/m 3,2 km/h (1 Bft) 97,44 %
29.09.2020 05:30 10,9 C 10,0 C 9,4 C 94 % 1013,5 hPa 0,0 l/m 0 min 0 min 0 W/m 0,0 km/h (0 Bft) 97,87 %
29.09.2020 05:32 10,9 C 10,0 C 9,4 C 94 % 1013,6 hPa 0,0 l/m 0 min 0 min 0 W/m 0,0 km/h (0 Bft) 97,83 %
29.09.2020 05:34 10,9 C 10,0 C 9,4 C 94 % 1013,6 hPa 0,0 l/m 0 min 0 min 0 W/m 0,0 km/h (0 Bft) 97,87 %
29.09.2020 05:36 10,9 C 10,0 C 9,4 C 94 % 1013,6 hPa 0,0 l/m 0 min 0 min 0 W/m 0,0 km/h (0 Bft) 97,87 %
29.09.2020 05:38 10,9 C 10,0 C 9,4 C 94 % 1013,6 hPa 0,0 l/m 0 min 0 min 0 W/m 3,2 km/h (1 Bft) 97,87 %
29.09.2020 05:40 10,9 C 10,0 C 9,4 C 94 % 1013,6 hPa 0,0 l/m 0 min 0 min 0 W/m 0,0 km/h (0 Bft) 97,87 %
29.09.2020 05:42 10,9 C 10,0 C 9,4 C 94 % 1013,6 hPa 0,0 l/m 0 min 2 min 0 W/m 0,0 km/h (0 Bft) 97,87 %
29.09.2020 05:44 10,9 C 10,0 C 9,4 C 94 % 1013,7 hPa 0,0 l/m 0 min 2 min 0 W/m 0,0 km/h (0 Bft) 97,83 %
29.09.2020 05:46 10,9 C 10,0 C 9,4 C 94 % 1013,7 hPa 0,0 l/m 0 min 2 min 0 W/m 0,0 km/h (0 Bft) 97,87 %
29.09.2020 05:48 10,9 C 10,0 C 9,4 C 94 % 1013,7 hPa 0,0 l/m 0 min 0 min 0 W/m 0,0 km/h (0 Bft) 97,87 %
29.09.2020 05:50 10,9 C 10,0 C 9,4 C 94 % 1013,7 hPa 0,0 l/m 0 min 0 min 0 W/m 0,0 km/h (0 Bft) 100,00 %
29.09.2020 05:52 10,9 C 10,0 C 9,4 C 95 % 1013,7 hPa 0,0 l/m 0 min 0 min 0 W/m 3,2 km/h (1 Bft) 97,87 %
29.09.2020 05:54 10,9 C 10,0 C 9,4 C 95 % 1013,8 hPa 0,0 l/m 0 min 0 min 0 W/m 0,0 km/h (0 Bft) 100,00 %
29.09.2020 05:56 10,9 C 10,0 C 10,0 C 95 % 1013,8 hPa 0,0 l/m 0 min 0 min 0 W/m 0,0 km/h (0 Bft) 100,00 %
29.09.2020 05:58 10,9 C 10,0 C 10,0 C 95 % 1013,7 hPa 0,0 l/m 0 min 0 min 0 W/m 12,9 km/h (3 Bft) 100,00 %
29.09.2020 06:00 10,9 C 10,0 C 10,0 C 95 % 1013,7 hPa 0,0 l/m 0 min 0 min 0 W/m 3,2 km/h (1 Bft) 100,00 %
29.09.2020 06:02 10,9 C 10,0 C 10,0 C 95 % 1013,7 hPa 0,0 l/m 0 min 0 min 0 W/m 3,2 km/h (1 Bft) 97,87 %
29.09.2020 06:04 10,9 C 10,0 C 10,0 C 95 % 1013,7 hPa 0,0 l/m 0 min 0 min 0 W/m 0,0 km/h (0 Bft) 100,00 %
29.09.2020 06:08 10,9 C 10,0 C 10,0 C 95 % 1013,7 hPa 0,0 l/m 0 min 0 min 0 W/m 0,0 km/h (0 Bft) 100,00 %
29.09.2020 06:10 11,0 C 10,0 C 10,0 C 95 % 1013,7 hPa 0,0 l/m 0 min 0 min 0 W/m 0,0 km/h (0 Bft) 100,00 %
29.09.2020 06:12 10,9 C 10,0 C 10,0 C 95 % 1013,7 hPa 0,0 l/m 0 min 0 min 0 W/m 0,0 km/h (0 Bft) 97,87 %
29.09.2020 06:14 11,0 C 10,0 C 10,0 C 95 % 1013,7 hPa 0,0 l/m 0 min 2 min 0 W/m 0,0 km/h (0 Bft) 97,87 %
29.09.2020 06:16 11,0 C 10,0 C 10,0 C 95 % 1013,6 hPa 0,0 l/m 0 min 2 min 0 W/m 0,0 km/h (0 Bft) 97,87 %
29.09.2020 06:18 11,0 C 10,0 C 10,0 C 95 % 1013,7 hPa 0,0 l/m 0 min 2 min 0 W/m 0,0 km/h (0 Bft) 95,65 %
29.09.2020 06:20 11,0 C 10,0 C 10,0 C 95 % 1013,7 hPa 0,0 l/m 0 min 2 min 0 W/m 0,0 km/h (0 Bft) 97,87 %
29.09.2020 06:22 11,0 C 10,0 C 9,4 C 95 % 1013,7 hPa 0,2 l/m 0 min 2 min 0 W/m 3,2 km/h (1 Bft) 97,87 %
29.09.2020 06:24 11,0 C 9,4 C 9,4 C 95 % 1013,7 hPa 0,0 l/m 0 min 2 min 0 W/m 3,2 km/h (1 Bft) 95,74 %
29.09.2020 06:26 11,0 C 9,4 C 9,4 C 95 % 1013,6 hPa 0,0 l/m 0 min 2 min 0 W/m 6,4 km/h (2 Bft) 97,87 %
29.09.2020 06:28 11,0 C 9,4 C 9,4 C 95 % 1013,6 hPa 0,2 l/m 0 min 2 min 0 W/m 0,0 km/h (0 Bft) 95,74 %
29.09.2020 06:30 11,0 C 9,4 C 9,4 C 95 % 1013,7 hPa 0,0 l/m 0 min 2 min 0 W/m 0,0 km/h (0 Bft) 95,65 %
29.09.2020 06:32 11,0 C 9,4 C 9,4 C 95 % 1013,7 hPa 0,0 l/m 0 min 0 min 0 W/m 0,0 km/h (0 Bft) 97,87 %
29.09.2020 06:34 11,0 C 9,4 C 9,4 C 95 % 1013,7 hPa 0,0 l/m 0 min 0 min 0 W/m 3,2 km/h (1 Bft) 97,87 %
29.09.2020 06:36 11,0 C 9,4 C 9,4 C 95 % 1013,7 hPa 0,0 l/m 0 min 0 min 0 W/m 3,2 km/h (1 Bft) 97,87 %
29.09.2020 06:38 11,1 C 9,4 C 9,4 C 96 % 1013,7 hPa 0,0 l/m 0 min 0 min 0 W/m 0,0 km/h (0 Bft) 97,87 %
29.09.2020 06:40 11,1 C 9,4 C 9,4 C 96 % 1013,7 hPa 0,0 l/m 0 min 0 min 0 W/m 3,2 km/h (1 Bft) 95,74 %
29.09.2020 06:42 11,1 C 9,4 C 9,4 C 96 % 1013,7 hPa 0,0 l/m 0 min 0 min 0 W/m 0,0 km/h (0 Bft) 97,83 %
29.09.2020 06:44 11,1 C 10,0 C 9,4 C 96 % 1013,7 hPa 0,0 l/m 0 min 0 min 0 W/m 0,0 km/h (0 Bft) 97,87 %
29.09.2020 06:46 11,1 C 10,0 C 9,4 C 96 % 1013,7 hPa 0,0 l/m 0 min 0 min 0 W/m 0,0 km/h (0 Bft) 93,62 %
29.09.2020 06:48 11,1 C 10,0 C 9,4 C 96 % 1013,8 hPa 0,0 l/m 0 min 0 min 0 W/m 0,0 km/h (0 Bft) 95,74 %
29.09.2020 06:50 11,1 C 10,0 C 9,4 C 96 % 1013,8 hPa 0,0 l/m 0 min 0 min 0 W/m 0,0 km/h (0 Bft) 97,87 %
29.09.2020 06:52 11,1 C 10,0 C 9,4 C 96 % 1013,8 hPa 0,0 l/m 0 min 2 min 0 W/m 0,0 km/h (0 Bft) 97,87 %
29.09.2020 06:54 11,1 C 10,0 C 9,4 C 96 % 1013,7 hPa 0,0 l/m 0 min 2 min 0 W/m 3,2 km/h (1 Bft) 97,83 %
29.09.2020 06:56 11,1 C 10,0 C 9,4 C 96 % 1013,8 hPa 0,0 l/m 0 min 0 min 0 W/m 3,2 km/h (1 Bft) 97,87 %
29.09.2020 06:58 11,1 C 10,0 C 9,4 C 96 % 1013,7 hPa 0,0 l/m 0 min 0 min 0 W/m 3,2 km/h (1 Bft) 97,87 %
29.09.2020 07:00 11,1 C 10,0 C 9,4 C 96 % 1013,8 hPa 0,0 l/m 0 min 0 min 0 W/m 3,2 km/h (1 Bft) 100,00 %
29.09.2020 07:02 11,1 C 10,0 C 9,4 C 96 % 1013,8 hPa 0,0 l/m 0 min 2 min 0 W/m 0,0 km/h (0 Bft) 97,87 %
29.09.2020 07:04 11,1 C 10,0 C 9,4 C 96 % 1013,9 hPa 0,0 l/m 0 min 2 min 0 W/m 0,0 km/h (0 Bft) 100,00 %
29.09.2020 07:06 11,1 C 10,0 C 9,4 C 96 % 1013,9 hPa 0,0 l/m 0 min 2 min 0 W/m 0,0 km/h (0 Bft) 97,87 %
29.09.2020 07:08 11,1 C 10,0 C 9,4 C 96 % 1013,9 hPa 0,0 l/m 0 min 0 min 0 W/m 0,0 km/h (0 Bft) 100,00 %
29.09.2020 07:10 11,1 C 10,0 C 10,0 C 96 % 1013,9 hPa 0,0 l/m 0 min 2 min 0 W/m 0,0 km/h (0 Bft) 97,87 %
29.09.2020 07:12 11,1 C 10,0 C 10,0 C 96 % 1013,9 hPa 0,0 l/m 0 min 0 min 0 W/m 0,0 km/h (0 Bft) 100,00 %
29.09.2020 07:14 11,1 C 10,0 C 10,0 C 96 % 1013,9 hPa 0,0 l/m 0 min 0 min 0 W/m 3,2 km/h (1 Bft) 95,74 %
29.09.2020 07:16 11,1 C 10,0 C 9,4 C 96 % 1013,9 hPa 0,0 l/m 0 min 0 min 0 W/m 0,0 km/h (0 Bft) 100,00 %
29.09.2020 07:18 11,1 C 10,0 C 10,0 C 96 % 1014,0 hPa 0,0 l/m 0 min 0 min 0 W/m 0,0 km/h (0 Bft) 100,00 %
29.09.2020 07:20 11,1 C 10,0 C 10,0 C 96 % 1014,1 hPa 0,0 l/m 0 min 2 min 0 W/m 0,0 km/h (0 Bft) 97,87 %
29.09.2020 07:22 11,1 C 10,0 C 10,0 C 96 % 1014,0 hPa 0,0 l/m 0 min 2 min 0 W/m 0,0 km/h (0 Bft) 100,00 %
29.09.2020 07:24 11,1 C 10,0 C 10,0 C 96 % 1014,1 hPa 0,0 l/m 0 min 2 min 0 W/m 0,0 km/h (0 Bft) 100,00 %
29.09.2020 07:26 11,1 C 10,0 C 10,0 C 96 % 1014,1 hPa 0,0 l/m 0 min 0 min 0 W/m 0,0 km/h (0 Bft) 95,74 %
29.09.2020 07:28 11,1 C 10,0 C 10,0 C 96 % 1014,1 hPa 0,0 l/m 0 min 2 min 0 W/m 12,9 km/h (3 Bft) 95,65 %
29.09.2020 07:30 11,1 C 10,0 C 10,0 C 96 % 1014,1 hPa 0,2 l/m 0 min 2 min 0 W/m 0,0 km/h (0 Bft) 95,74 %
29.09.2020 07:32 11,1 C 10,0 C 10,0 C 97 % 1014,2 hPa 0,0 l/m 0 min 0 min 0 W/m 0,0 km/h (0 Bft) 95,74 %
29.09.2020 07:34 11,1 C 10,0 C 10,0 C 97 % 1014,2 hPa 0,0 l/m 0 min 0 min 0 W/m 0,0 km/h (0 Bft) 97,87 %
29.09.2020 07:36 11,1 C 10,0 C 10,0 C 97 % 1014,2 hPa 0,0 l/m 0 min 0 min 0 W/m 3,2 km/h (1 Bft) 97,87 %
29.09.2020 07:38 11,1 C 10,0 C 10,0 C 97 % 1014,2 hPa 0,0 l/m 0 min 0 min 0 W/m 0,0 km/h (0 Bft) 93,10 %
29.09.2020 07:40 11,1 C 10,0 C 10,0 C 97 % 1014,2 hPa 0,0 l/m 0 min 0 min 0 W/m 0,0 km/h (0 Bft) 97,87 %
29.09.2020 07:42 11,1 C 10,0 C 10,0 C 97 % 1014,3 hPa 0,0 l/m 0 min 0 min 0 W/m 3,2 km/h (1 Bft) 95,74 %
29.09.2020 07:44 11,1 C 10,0 C 10,0 C 97 % 1014,3 hPa 0,0 l/m 0 min 2 min 0 W/m 0,0 km/h (0 Bft) 94,29 %
29.09.2020 07:46 11,2 C 10,0 C 10,0 C 97 % 1014,3 hPa 0,0 l/m 0 min 0 min 0 W/m 0,0 km/h (0 Bft) 96,61 %
29.09.2020 07:48 11,2 C 10,0 C 10,0 C 97 % 1014,3 hPa 0,0 l/m 0 min 0 min 0 W/m 0,0 km/h (0 Bft) 94,29 %
29.09.2020 07:50 11,2 C 10,0 C 10,0 C 97 % 1014,4 hPa 0,0 l/m 0 min 0 min 0 W/m 0,0 km/h (0 Bft) 97,87 %
29.09.2020 07:52 11,2 C 10,0 C 10,0 C 97 % 1014,4 hPa 0,0 l/m 0 min 2 min 0 W/m 0,0 km/h (0 Bft) 95,65 %
29.09.2020 07:54 11,2 C 10,0 C 10,0 C 97 % 1014,4 hPa 0,0 l/m 0 min 2 min 0 W/m 0,0 km/h (0 Bft) 95,74 %
29.09.2020 07:56 11,2 C 10,0 C 10,0 C 97 % 1014,4 hPa 0,0 l/m 0 min 0 min 0 W/m 0,0 km/h (0 Bft) 95,74 %
29.09.2020 07:58 11,2 C 10,0 C 10,0 C 97 % 1014,5 hPa 0,0 l/m 0 min 0 min 0 W/m 0,0 km/h (0 Bft) 95,74 %
29.09.2020 08:00 11,2 C 10,0 C 10,0 C 97 % 1014,4 hPa 0,0 l/m 0 min 0 min 0 W/m 0,0 km/h (0 Bft) 94,92 %
29.09.2020 08:02 11,2 C 10,0 C 10,0 C 97 % 1014,5 hPa 0,0 l/m 0 min 0 min 0 W/m 0,0 km/h (0 Bft) 95,65 %
29.09.2020 08:04 11,2 C 10,0 C 10,0 C 97 % 1014,5 hPa 0,0 l/m 0 min 0 min 0 W/m 3,2 km/h (1 Bft) 95,74 %
29.09.2020 08:06 11,2 C 10,0 C 10,0 C 97 % 1014,5 hPa 0,0 l/m 0 min 0 min 0 W/m 12,9 km/h (3 Bft) 91,49 %
29.09.2020 08:08 11,2 C 10,0 C 10,0 C 97 % 1014,5 hPa 0,0 l/m 0 min 0 min 0 W/m 3,2 km/h (1 Bft) 95,74 %
29.09.2020 08:10 11,2 C 10,0 C 10,0 C 97 % 1014,5 hPa 0,0 l/m 0 min 2 min 0 W/m 12,9 km/h (3 Bft) 97,14 %
29.09.2020 08:12 11,2 C 10,0 C 10,0 C 97 % 1014,6 hPa 0,0 l/m 0 min 2 min 2 W/m 0,0 km/h (0 Bft) 95,74 %
29.09.2020 08:14 11,2 C 10,0 C 10,0 C 97 % 1014,5 hPa 0,0 l/m 0 min 2 min 5 W/m 0,0 km/h (0 Bft) 94,83 %
29.09.2020 08:16 11,2 C 10,0 C 10,0 C 97 % 1014,5 hPa 0,2 l/m 0 min 2 min 5 W/m 0,0 km/h (0 Bft) 93,62 %
29.09.2020 08:18 11,2 C 10,0 C 10,0 C 97 % 1014,6 hPa 0,2 l/m 0 min 2 min 5 W/m 0,0 km/h (0 Bft) 95,74 %
29.09.2020 08:20 11,2 C 10,0 C 10,0 C 97 % 1014,6 hPa 0,2 l/m 0 min 2 min 5 W/m 0,0 km/h (0 Bft) 97,14 %
29.09.2020 08:22 11,2 C 10,0 C 10,0 C 97 % 1014,6 hPa 0,2 l/m 0 min 2 min 5 W/m 0,0 km/h (0 Bft) 94,92 %
29.09.2020 08:24 11,2 C 10,0 C 10,0 C 97 % 1014,6 hPa 0,2 l/m 0 min 2 min 3 W/m 6,4 km/h (2 Bft) 97,14 %
29.09.2020 08:26 11,2 C 10,0 C 10,0 C 97 % 1014,6 hPa 0,0 l/m 0 min 2 min 3 W/m 3,2 km/h (1 Bft) 96,55 %
29.09.2020 08:28 11,2 C 10,0 C 10,0 C 97 % 1014,6 hPa 0,2 l/m 0 min 2 min 5 W/m 0,0 km/h (0 Bft) 100,00 %
29.09.2020 08:30 11,2 C 10,0 C 10,0 C 97 % 1014,6 hPa 0,0 l/m 0 min 0 min 6 W/m 3,2 km/h (1 Bft) 100,00 %
29.09.2020 08:32 11,2 C 10,0 C 10,0 C 97 % 1014,6 hPa 0,0 l/m 0 min 0 min 7 W/m 12,9 km/h (3 Bft) 100,00 %
29.09.2020 08:34 11,2 C 10,0 C 10,0 C 97 % 1014,7 hPa 0,0 l/m 0 min 0 min 7 W/m 0,0 km/h (0 Bft) 100,00 %
29.09.2020 08:36 11,2 C 10,0 C 10,0 C 97 % 1014,7 hPa 0,0 l/m 0 min 0 min 9 W/m 6,4 km/h (2 Bft) 97,14 %
29.09.2020 08:38 11,2 C 10,0 C 10,0 C 97 % 1014,7 hPa 0,0 l/m 0 min 0 min 10 W/m 0,0 km/h (0 Bft) 100,00 %
29.09.2020 08:40 11,2 C 10,0 C 10,0 C 97 % 1014,7 hPa 0,2 l/m 0 min 0 min 11 W/m 0,0 km/h (0 Bft) 97,87 %
29.09.2020 08:42 11,2 C 10,0 C 10,0 C 97 % 1014,7 hPa 0,0 l/m 0 min 0 min 11 W/m 0,0 km/h (0 Bft) 100,00 %
29.09.2020 08:44 11,2 C 10,0 C 10,0 C 97 % 1014,8 hPa 0,0 l/m 0 min 0 min 12 W/m 0,0 km/h (0 Bft) 100,00 %
29.09.2020 08:46 11,2 C 10,0 C 10,0 C 97 % 1014,8 hPa 0,0 l/m 0 min 0 min 12 W/m 0,0 km/h (0 Bft) 97,87 %
29.09.2020 08:48 11,2 C 10,0 C 10,0 C 98 % 1014,8 hPa 0,2 l/m 0 min 0 min 14 W/m 0,0 km/h (0 Bft) 100,00 %
29.09.2020 08:50 11,2 C 10,0 C 10,0 C 98 % 1014,9 hPa 0,0 l/m 0 min 0 min 18 W/m 0,0 km/h (0 Bft) 97,83 %
29.09.2020 08:52 11,2 C 10,0 C 10,0 C 98 % 1014,8 hPa 0,0 l/m 0 min 2 min 21 W/m 0,0 km/h (0 Bft) 100,00 %
29.09.2020 08:54 11,2 C 10,0 C 10,0 C 98 % 1014,8 hPa 0,0 l/m 0 min 2 min 23 W/m 0,0 km/h (0 Bft) 95,74 %
29.09.2020 08:56 11,3 C 10,0 C 10,0 C 98 % 1014,8 hPa 0,0 l/m 0 min 0 min 23 W/m 0,0 km/h (0 Bft) 97,87 %
29.09.2020 08:58 11,3 C 10,6 C 10,0 C 98 % 1014,8 hPa 0,0 l/m 0 min 2 min 23 W/m 6,4 km/h (2 Bft) 100,00 %
29.09.2020 09:00 11,3 C 10,6 C 10,0 C 98 % 1014,8 hPa 0,0 l/m 0 min 2 min 23 W/m 3,2 km/h (1 Bft) 95,74 %
29.09.2020 09:02 11,3 C 10,6 C 10,0 C 98 % 1014,8 hPa 0,2 l/m 0 min 0 min 23 W/m 3,2 km/h (1 Bft) 100,00 %
29.09.2020 09:04 11,3 C 10,6 C 10,0 C 98 % 1014,9 hPa 0,0 l/m 0 min 2 min 24 W/m 6,4 km/h (2 Bft) 97,67 %
29.09.2020 09:06 11,3 C 10,6 C 10,0 C 98 % 1014,9 hPa 0,2 l/m 0 min 2 min 27 W/m 0,0 km/h (0 Bft) 91,49 %
29.09.2020 09:08 11,3 C 10,6 C 10,0 C 98 % 1014,9 hPa 0,0 l/m 0 min 2 min 28 W/m 0,0 km/h (0 Bft) 97,87 %
29.09.2020 09:10 11,3 C 10,6 C 10,0 C 98 % 1014,9 hPa 0,2 l/m 0 min 2 min 27 W/m 0,0 km/h (0 Bft) 97,87 %
29.09.2020 09:12 11,3 C 10,6 C 10,0 C 98 % 1014,9 hPa 0,0 l/m 0 min 2 min 24 W/m 6,4 km/h (2 Bft) 97,87 %
29.09.2020 09:14 11,3 C 10,6 C 10,0 C 98 % 1015,0 hPa 0,2 l/m 0 min 2 min 20 W/m 0,0 km/h (0 Bft) 97,83 %
29.09.2020 09:16 11,4 C 10,6 C 10,0 C 98 % 1015,0 hPa 0,0 l/m 0 min 0 min 16 W/m 0,0 km/h (0 Bft) 97,87 %
29.09.2020 09:18 11,4 C 10,6 C 10,0 C 98 % 1015,0 hPa 0,0 l/m 0 min 0 min 13 W/m 0,0 km/h (0 Bft) 97,87 %
29.09.2020 09:20 11,4 C 10,6 C 10,0 C 98 % 1015,0 hPa 0,0 l/m 0 min 0 min 11 W/m 0,0 km/h (0 Bft) 96,43 %
29.09.2020 09:22 11,4 C 10,6 C 10,0 C 98 % 1015,1 hPa 0,0 l/m 0 min 0 min 10 W/m 0,0 km/h (0 Bft) 97,87 %
29.09.2020 09:24 11,4 C 10,6 C 10,0 C 98 % 1015,1 hPa 0,0 l/m 0 min 0 min 8 W/m 0,0 km/h (0 Bft) 97,87 %
29.09.2020 09:26 11,4 C 10,6 C 10,6 C 98 % 1015,1 hPa 0,0 l/m 0 min 0 min 7 W/m 0,0 km/h (0 Bft) 97,87 %
29.09.2020 09:28 11,4 C 10,6 C 10,6 C 98 % 1015,0 hPa 0,0 l/m 0 min 0 min 9 W/m 0,0 km/h (0 Bft) 97,87 %
29.09.2020 09:30 11,4 C 10,6 C 10,6 C 98 % 1015,1 hPa 0,0 l/m 0 min 0 min 9 W/m 0,0 km/h (0 Bft) 97,87 %
29.09.2020 09:32 11,4 C 10,6 C 10,0 C 98 % 1015,1 hPa 0,0 l/m 0 min 0 min 9 W/m 0,0 km/h (0 Bft) 97,83 %
29.09.2020 09:34 11,4 C 10,6 C 10,6 C 98 % 1015,2 hPa 0,0 l/m 0 min 0 min 9 W/m 0,0 km/h (0 Bft) 97,37 %
29.09.2020 09:36 11,4 C 10,6 C 10,6 C 98 % 1015,2 hPa 0,2 l/m 0 min 0 min 9 W/m 0,0 km/h (0 Bft) 97,87 %
29.09.2020 09:38 11,4 C 10,6 C 10,6 C 98 % 1015,2 hPa 0,0 l/m 0 min 0 min 9 W/m 0,0 km/h (0 Bft) 97,83 %
29.09.2020 09:40 11,4 C 10,6 C 10,6 C 98 % 1015,3 hPa 0,0 l/m 0 min 0 min 9 W/m 0,0 km/h (0 Bft) 97,87 %
29.09.2020 09:42 11,5 C 10,6 C 10,6 C 98 % 1015,3 hPa 0,0 l/m 0 min 0 min 11 W/m 0,0 km/h (0 Bft) 95,74 %
29.09.2020 09:44 11,5 C 10,6 C 10,6 C 98 % 1015,3 hPa 0,0 l/m 0 min 0 min 12 W/m 0,0 km/h (0 Bft) 97,87 %
29.09.2020 09:46 11,5 C 10,6 C 10,6 C 98 % 1015,4 hPa 0,0 l/m 0 min 0 min 13 W/m 0,0 km/h (0 Bft) 100,00 %
29.09.2020 09:48 11,6 C 10,6 C 10,6 C 98 % 1015,4 hPa 0,0 l/m 0 min 0 min 14 W/m 0,0 km/h (0 Bft) 100,00 %
29.09.2020 09:50 11,6 C 11,1 C 10,6 C 98 % 1015,4 hPa 0,0 l/m 0 min 0 min 16 W/m 0,0 km/h (0 Bft) 100,00 %
29.09.2020 09:52 11,6 C 11,1 C 10,6 C 98 % 1015,4 hPa 0,0 l/m 0 min 0 min 16 W/m 0,0 km/h (0 Bft) 97,87 %
29.09.2020 09:54 11,6 C 11,1 C 10,6 C 98 % 1015,4 hPa 0,0 l/m 0 min 0 min 15 W/m 0,0 km/h (0 Bft) 100,00 %
29.09.2020 09:56 11,6 C 11,1 C 10,6 C 98 % 1015,4 hPa 0,0 l/m 0 min 0 min 14 W/m 0,0 km/h (0 Bft) 100,00 %
29.09.2020 09:58 11,6 C 11,1 C 10,6 C 98 % 1015,4 hPa 0,2 l/m 0 min 0 min 14 W/m 0,0 km/h (0 Bft) 97,87 %
29.09.2020 10:00 11,6 C 11,1 C 10,6 C 98 % 1015,5 hPa 0,0 l/m 0 min 0 min 12 W/m 0,0 km/h (0 Bft) 97,83 %
29.09.2020 10:02 11,6 C 11,1 C 10,6 C 98 % 1015,5 hPa 0,0 l/m 0 min 0 min 12 W/m 0,0 km/h (0 Bft) 97,87 %
29.09.2020 10:04 11,7 C 11,1 C 10,6 C 99 % 1015,5 hPa 0,0 l/m 0 min 0 min 12 W/m 0,0 km/h (0 Bft) 100,00 %
29.09.2020 10:06 11,7 C 11,1 C 10,6 C 99 % 1015,5 hPa 0,0 l/m 0 min 0 min 12 W/m 0,0 km/h (0 Bft) 97,87 %
29.09.2020 10:08 11,7 C 11,1 C 10,6 C 99 % 1015,6 hPa 0,0 l/m 0 min 0 min 12 W/m 0,0 km/h (0 Bft) 100,00 %
29.09.2020 10:10 11,7 C 11,1 C 10,6 C 99 % 1015,6 hPa 0,0 l/m 0 min 0 min 12 W/m 0,0 km/h (0 Bft) 100,00 %
29.09.2020 10:12 11,8 C 11,1 C 10,6 C 99 % 1015,6 hPa 0,0 l/m 0 min 0 min 12 W/m 0,0 km/h (0 Bft) 100,00 %
29.09.2020 10:14 11,8 C 11,1 C 10,6 C 99 % 1015,6 hPa 0,0 l/m 0 min 0 min 12 W/m 0,0 km/h (0 Bft) 100,00 %
29.09.2020 10:16 11,8 C 11,1 C 10,6 C 99 % 1015,6 hPa 0,0 l/m 0 min 0 min 14 W/m 0,0 km/h (0 Bft) 97,87 %
29.09.2020 10:18 11,8 C 11,1 C 10,6 C 99 % 1015,6 hPa 0,0 l/m 0 min 0 min 16 W/m 0,0 km/h (0 Bft) 97,87 %
29.09.2020 10:20 11,8 C 11,1 C 11,1 C 99 % 1015,6 hPa 0,0 l/m 0 min 0 min 17 W/m 0,0 km/h (0 Bft) 100,00 %
29.09.2020 10:22 11,8 C 11,7 C 11,1 C 99 % 1015,7 hPa 0,0 l/m 0 min 0 min 18 W/m 0,0 km/h (0 Bft) 100,00 %
29.09.2020 10:24 11,9 C 11,7 C 11,1 C 99 % 1015,7 hPa 0,0 l/m 0 min 0 min 18 W/m 0,0 km/h (0 Bft) 100,00 %
29.09.2020 10:26 11,9 C 11,7 C 11,1 C 99 % 1015,7 hPa 0,0 l/m 0 min 0 min 18 W/m 0,0 km/h (0 Bft) 97,87 %
29.09.2020 10:28 11,9 C 11,7 C 11,1 C 99 % 1015,7 hPa 0,0 l/m 0 min 0 min 18 W/m 0,0 km/h (0 Bft) 96,30 %
29.09.2020 10:30 12,0 C 11,7 C 11,1 C 99 % 1015,7 hPa 0,0 l/m 0 min 0 min 20 W/m 0,0 km/h (0 Bft) 97,83 %
29.09.2020 10:32 12,0 C 11,7 C 11,1 C 99 % 1015,7 hPa 0,2 l/m 0 min 0 min 22 W/m 0,0 km/h (0 Bft) 95,74 %
29.09.2020 10:34 12,1 C 11,7 C 11,1 C 99 % 1015,7 hPa 0,0 l/m 0 min 0 min 25 W/m 0,0 km/h (0 Bft) 97,87 %
29.09.2020 10:36 12,1 C 11,7 C 11,1 C 99 % 1015,7 hPa 0,0 l/m 0 min 0 min 25 W/m 0,0 km/h (0 Bft) 97,92 %
29.09.2020 10:38 12,1 C 11,7 C 11,1 C 99 % 1015,8 hPa 0,0 l/m 0 min 0 min 25 W/m 0,0 km/h (0 Bft) 97,87 %
29.09.2020 10:40 12,2 C 12,2 C 11,1 C 99 % 1015,8 hPa 0,0 l/m 0 min 0 min 25 W/m 0,0 km/h (0 Bft) 97,87 %
29.09.2020 10:42 12,2 C 12,2 C 11,7 C 99 % 1015,7 hPa 0,0 l/m 0 min 0 min 26 W/m 0,0 km/h (0 Bft) 97,83 %
29.09.2020 10:44 12,3 C 12,2 C 11,7 C 99 % 1015,8 hPa 0,0 l/m 0 min 0 min 26 W/m 0,0 km/h (0 Bft) 97,87 %
29.09.2020 10:46 12,3 C 12,2 C 11,7 C 99 % 1015,9 hPa 0,0 l/m 0 min 0 min 26 W/m 0,0 km/h (0 Bft) 97,87 %
29.09.2020 10:48 12,4 C 12,2 C 11,7 C 99 % 1015,9 hPa 0,0 l/m 0 min 0 min 25 W/m 0,0 km/h (0 Bft) 100,00 %
29.09.2020 10:50 12,5 C 12,2 C 11,7 C 99 % 1015,9 hPa 0,0 l/m 0 min 0 min 25 W/m 3,2 km/h (1 Bft) 97,87 %
29.09.2020 10:52 12,6 C 12,2 C 11,7 C 99 % 1015,9 hPa 0,0 l/m 0 min 0 min 26 W/m 0,0 km/h (0 Bft) 97,87 %
29.09.2020 10:54 12,6 C 12,2 C 11,7 C 99 % 1015,9 hPa 0,0 l/m 0 min 0 min 26 W/m 12,9 km/h (3 Bft) 97,83 %
29.09.2020 10:56 12,7 C 12,2 C 11,7 C 99 % 1015,9 hPa 0,0 l/m 0 min 0 min 25 W/m 6,4 km/h (2 Bft) 97,87 %
29.09.2020 10:58 12,8 C 12,2 C 11,7 C 99 % 1016,0 hPa 0,0 l/m 0 min 0 min 23 W/m 3,2 km/h (1 Bft) 95,74 %
29.09.2020 11:00 12,8 C 12,2 C 11,7 C 99 % 1016,0 hPa 0,0 l/m 0 min 0 min 24 W/m 0,0 km/h (0 Bft) 95,74 %
29.09.2020 11:02 12,9 C 12,2 C 11,7 C 99 % 1016,0 hPa 0,0 l/m 0 min 0 min 21 W/m 3,2 km/h (1 Bft) 97,87 %
29.09.2020 11:04 12,9 C 12,2 C 11,7 C 99 % 1016,0 hPa 0,0 l/m 0 min 0 min 21 W/m 0,0 km/h (0 Bft) 93,62 %
29.09.2020 11:06 13,0 C 12,2 C 11,7 C 99 % 1016,1 hPa 0,0 l/m 0 min 0 min 22 W/m 0,0 km/h (0 Bft) 95,65 %
29.09.2020 11:08 13,0 C 12,2 C 11,7 C 99 % 1016,1 hPa 0,0 l/m 0 min 2 min 24 W/m 6,4 km/h (2 Bft) 93,62 %
29.09.2020 11:10 13,1 C 12,2 C 11,7 C 99 % 1016,2 hPa 0,0 l/m 0 min 2 min 21 W/m 6,4 km/h (2 Bft) 95,74 %
29.09.2020 11:12 13,1 C 12,2 C 11,7 C 99 % 1016,2 hPa 0,0 l/m 0 min 0 min 20 W/m 0,0 km/h (0 Bft) 97,87 %
29.09.2020 11:14 13,1 C 12,2 C 11,7 C 99 % 1016,2 hPa 0,0 l/m 0 min 0 min 19 W/m 9,7 km/h (2 Bft) 95,74 %
29.09.2020 11:16 13,1 C 12,2 C 11,7 C 99 % 1016,2 hPa 0,0 l/m 0 min 0 min 23 W/m 3,2 km/h (1 Bft) 93,62 %
29.09.2020 11:18 13,1 C 12,2 C 11,7 C 99 % 1016,2 hPa 0,0 l/m 0 min 0 min 25 W/m 3,2 km/h (1 Bft) 95,65 %
29.09.2020 11:20 13,1 C 12,2 C 11,7 C 99 % 1016,2 hPa 0,0 l/m 0 min 0 min 27 W/m 3,2 km/h (1 Bft) 95,74 %
29.09.2020 11:22 13,1 C 12,2 C 11,7 C 99 % 1016,2 hPa 0,0 l/m 0 min 0 min 31 W/m 6,4 km/h (2 Bft) 95,74 %
29.09.2020 11:24 13,2 C 12,2 C 11,7 C 99 % 1016,2 hPa 0,0 l/m 0 min 0 min 36 W/m 6,4 km/h (2 Bft) 55,32 %
29.09.2020 11:26 13,2 C 12,2 C 11,7 C 99 % 1016,2 hPa 0,0 l/m 0 min 0 min 34 W/m 12,9 km/h (3 Bft) 97,87 %
29.09.2020 11:28 13,1 C 12,2 C 11,7 C 99 % 1016,2 hPa 0,0 l/m 0 min 0 min 41 W/m 3,2 km/h (1 Bft) 97,87 %
29.09.2020 11:30 13,1 C 12,2 C 11,7 C 99 % 1016,2 hPa 0,0 l/m 0 min 0 min 40 W/m 0,0 km/h (0 Bft) 97,83 %
29.09.2020 11:32 13,2 C 12,2 C 11,7 C 99 % 1016,2 hPa 0,0 l/m 0 min 0 min 45 W/m 0,0 km/h (0 Bft) 97,87 %
29.09.2020 11:34 13,2 C 12,2 C 11,7 C 99 % 1016,2 hPa 0,0 l/m 0 min 0 min 40 W/m 3,2 km/h (1 Bft) 97,87 %
29.09.2020 11:36 13,2 C 12,2 C 11,7 C 99 % 1016,2 hPa 0,0 l/m 0 min 0 min 45 W/m 3,2 km/h (1 Bft) 95,74 %
29.09.2020 11:38 13,2 C 12,2 C 12,2 C 99 % 1016,2 hPa 0,0 l/m 0 min 2 min 47 W/m 0,0 km/h (0 Bft) 97,87 %
29.09.2020 11:40 13,2 C 12,2 C 12,2 C 99 % 1016,3 hPa 0,0 l/m 0 min 2 min 55 W/m 6,4 km/h (2 Bft) 95,65 %
29.09.2020 11:42 13,2 C 12,2 C 12,2 C 99 % 1016,3 hPa 0,0 l/m 0 min 0 min 54 W/m 3,2 km/h (1 Bft) 95,74 %
29.09.2020 11:44 13,2 C 12,2 C 12,2 C 99 % 1016,3 hPa 0,0 l/m 0 min 2 min 56 W/m 0,0 km/h (0 Bft) 95,74 %
29.09.2020 11:46 13,2 C 12,2 C 12,2 C 99 % 1016,3 hPa 0,0 l/m 0 min 2 min 58 W/m 0,0 km/h (0 Bft) 93,62 %
29.09.2020 11:48 13,2 C 12,2 C 12,2 C 99 % 1016,3 hPa 0,0 l/m 0 min 0 min 61 W/m 0,0 km/h (0 Bft) 95,74 %
29.09.2020 11:50 13,2 C 12,2 C 12,2 C 99 % 1016,3 hPa 0,0 l/m 0 min 0 min 63 W/m 0,0 km/h (0 Bft) 95,74 %
29.09.2020 11:52 13,2 C 12,2 C 12,2 C 99 % 1016,3 hPa 0,0 l/m 0 min 0 min 57 W/m 9,7 km/h (2 Bft) 93,48 %
29.09.2020 11:54 13,2 C 12,2 C 12,2 C 99 % 1016,4 hPa 0,2 l/m 0 min 2 min 50 W/m 0,0 km/h (0 Bft) 91,49 %
29.09.2020 11:56 13,2 C 12,2 C 12,2 C 99 % 1016,4 hPa 0,0 l/m 0 min 2 min 53 W/m 6,4 km/h (2 Bft) 93,62 %
29.09.2020 11:58 13,2 C 12,2 C 12,2 C 99 % 1016,4 hPa 0,0 l/m 0 min 2 min 57 W/m 0,0 km/h (0 Bft) 97,87 %
29.09.2020 12:00 13,2 C 12,2 C 12,2 C 99 % 1016,5 hPa 0,2 l/m 0 min 2 min 57 W/m 3,2 km/h (1 Bft) 97,87 %
29.09.2020 12:02 13,2 C 12,2 C 12,2 C 99 % 1016,5 hPa 0,2 l/m 0 min 2 min 52 W/m 3,2 km/h (1 Bft) 95,74 %
29.09.2020 12:04 13,2 C 12,2 C 12,2 C 99 % 1016,5 hPa 0,0 l/m 0 min 2 min 50 W/m 0,0 km/h (0 Bft) 95,65 %
29.09.2020 12:08 13,2 C 12,2 C 12,2 C 99 % 1016,4 hPa 0,2 l/m 0 min 4 min 54 W/m 6,4 km/h (2 Bft) 96,88 %
29.09.2020 12:10 13,2 C 12,2 C 12,2 C 99 % 1016,5 hPa 0,0 l/m 0 min 2 min 59 W/m 0,0 km/h (0 Bft) 97,87 %
29.09.2020 12:12 13,2 C 12,2 C 12,2 C 100 % 1016,5 hPa 0,2 l/m 0 min 2 min 59 W/m 0,0 km/h (0 Bft) 97,87 %
29.09.2020 12:14 13,3 C 12,2 C 12,2 C 100 % 1016,4 hPa 0,0 l/m 0 min 2 min 56 W/m 0,0 km/h (0 Bft) 93,48 %
29.09.2020 12:16 13,3 C 12,2 C 12,2 C 100 % 1016,4 hPa 0,0 l/m 0 min 2 min 54 W/m 0,0 km/h (0 Bft) 97,87 %
29.09.2020 12:18 13,3 C 12,2 C 12,2 C 100 % 1016,4 hPa 0,0 l/m 0 min 0 min 51 W/m 0,0 km/h (0 Bft) 97,87 %
29.09.2020 12:20 13,3 C 12,2 C 12,2 C 100 % 1016,4 hPa 0,0 l/m 0 min 0 min 46 W/m 3,2 km/h (1 Bft) 97,87 %
29.09.2020 12:22 13,3 C 12,2 C 12,2 C 100 % 1016,4 hPa 0,0 l/m 0 min 0 min 44 W/m 0,0 km/h (0 Bft) 97,87 %
29.09.2020 12:24 13,3 C 12,2 C 12,2 C 100 % 1016,5 hPa 0,0 l/m 0 min 0 min 47 W/m 3,2 km/h (1 Bft) 95,74 %
29.09.2020 12:26 13,3 C 12,2 C 12,2 C 100 % 1016,4 hPa 0,0 l/m 0 min 0 min 53 W/m 0,0 km/h (0 Bft) 100,00 %
29.09.2020 12:28 13,3 C 12,2 C 12,2 C 100 % 1016,5 hPa 0,0 l/m 0 min 0 min 56 W/m 3,2 km/h (1 Bft) 100,00 %
29.09.2020 12:30 13,3 C 12,2 C 12,2 C 100 % 1016,4 hPa 0,0 l/m 0 min 0 min 59 W/m 3,2 km/h (1 Bft) 100,00 %
29.09.2020 12:32 13,3 C 12,8 C 12,2 C 100 % 1016,4 hPa 0,0 l/m 0 min 0 min 61 W/m 3,2 km/h (1 Bft) 97,87 %
29.09.2020 12:34 13,3 C 12,8 C 12,2 C 100 % 1016,5 hPa 0,0 l/m 0 min 0 min 66 W/m 0,0 km/h (0 Bft) 97,87 %
29.09.2020 12:36 13,3 C 12,8 C 12,2 C 100 % 1016,5 hPa 0,0 l/m 0 min 0 min 72 W/m 6,4 km/h (2 Bft) 97,87 %
29.09.2020 12:38 13,3 C 12,8 C 12,2 C 100 % 1016,4 hPa 0,0 l/m 0 min 0 min 75 W/m 12,9 km/h (3 Bft) 100,00 %
29.09.2020 12:40 13,3 C 12,8 C 12,2 C 100 % 1016,5 hPa 0,0 l/m 0 min 0 min 74 W/m 0,0 km/h (0 Bft) 100,00 %
29.09.2020 12:42 13,3 C 12,8 C 12,2 C 100 % 1016,5 hPa 0,0 l/m 0 min 0 min 78 W/m 3,2 km/h (1 Bft) 95,74 %
29.09.2020 12:44 13,3 C 12,8 C 12,2 C 100 % 1016,5 hPa 0,0 l/m 0 min 0 min 76 W/m 3,2 km/h (1 Bft) 100,00 %
29.09.2020 12:46 13,3 C 12,8 C 12,2 C 100 % 1016,5 hPa 0,0 l/m 0 min 0 min 78 W/m 3,2 km/h (1 Bft) 97,14 %
29.09.2020 12:48 13,3 C 12,8 C 12,2 C 100 % 1016,5 hPa 0,0 l/m 0 min 0 min 87 W/m 3,2 km/h (1 Bft) 100,00 %
29.09.2020 12:50 13,4 C 12,8 C 12,2 C 100 % 1016,5 hPa 0,0 l/m 0 min 0 min 81 W/m 9,7 km/h (2 Bft) 100,00 %
29.09.2020 12:52 13,4 C 12,8 C 12,2 C 100 % 1016,5 hPa 0,0 l/m 0 min 0 min 77 W/m 3,2 km/h (1 Bft) 100,00 %
29.09.2020 12:54 13,4 C 12,8 C 12,2 C 100 % 1016,5 hPa 0,0 l/m 0 min 0 min 74 W/m 12,9 km/h (3 Bft) 100,00 %
29.09.2020 12:56 13,4 C 12,8 C 12,2 C 100 % 1016,6 hPa 0,0 l/m 0 min 0 min 77 W/m 3,2 km/h (1 Bft) 97,92 %
29.09.2020 12:58 13,4 C 12,8 C 12,2 C 100 % 1016,6 hPa 0,0 l/m 0 min 0 min 78 W/m 0,0 km/h (0 Bft) 100,00 %
29.09.2020 13:00 13,4 C 12,8 C 12,2 C 100 % 1016,6 hPa 0,0 l/m 0 min 0 min 83 W/m 6,4 km/h (2 Bft) 100,00 %
29.09.2020 13:02 13,4 C 12,8 C 12,2 C 100 % 1016,6 hPa 0,0 l/m 0 min 2 min 79 W/m 0,0 km/h (0 Bft) 98,00 %
29.09.2020 13:06 13,4 C 12,8 C 12,2 C 100 % 1016,7 hPa 0,0 l/m 0 min 4 min 78 W/m 0,0 km/h (0 Bft) 100,00 %
29.09.2020 13:08 13,4 C 12,8 C 12,2 C 100 % 1016,7 hPa 0,0 l/m 0 min 2 min 96 W/m 3,2 km/h (1 Bft) 100,00 %
29.09.2020 13:10 13,4 C 12,8 C 12,2 C 100 % 1016,7 hPa 0,0 l/m 0 min 2 min 95 W/m 0,0 km/h (0 Bft) 100,00 %
29.09.2020 13:12 13,4 C 12,8 C 12,2 C 100 % 1016,8 hPa 0,0 l/m 0 min 2 min 91 W/m 6,4 km/h (2 Bft) 95,83 %
29.09.2020 13:14 13,4 C 12,8 C 12,2 C 100 % 1016,7 hPa 0,0 l/m 0 min 2 min 91 W/m 0,0 km/h (0 Bft) 100,00 %
29.09.2020 13:16 13,4 C 12,8 C 12,2 C 100 % 1016,7 hPa 0,2 l/m 0 min 2 min 92 W/m 6,4 km/h (2 Bft) 100,00 %
29.09.2020 13:18 13,4 C 12,8 C 12,2 C 100 % 1016,7 hPa 0,0 l/m 0 min 2 min 84 W/m 6,4 km/h (2 Bft) 97,87 %
29.09.2020 13:20 13,3 C 12,2 C 12,2 C 100 % 1016,7 hPa 0,0 l/m 0 min 2 min 74 W/m 6,4 km/h (2 Bft) 97,87 %
29.09.2020 13:22 13,3 C 12,2 C 12,2 C 100 % 1016,8 hPa 0,0 l/m 0 min 2 min 73 W/m 0,0 km/h (0 Bft) 100,00 %
29.09.2020 13:24 13,3 C 12,2 C 12,2 C 100 % 1016,8 hPa 0,0 l/m 0 min 2 min 84 W/m 3,2 km/h (1 Bft) 97,87 %
29.09.2020 13:26 13,3 C 12,2 C 12,2 C 100 % 1016,8 hPa 0,0 l/m 0 min 0 min 102 W/m 3,2 km/h (1 Bft) 97,83 %
29.09.2020 13:28 13,3 C 12,8 C 12,2 C 100 % 1016,8 hPa 0,0 l/m 0 min 0 min 111 W/m 3,2 km/h (1 Bft) 97,62 %
29.09.2020 13:30 13,3 C 12,8 C 12,2 C 100 % 1016,8 hPa 0,0 l/m 0 min 0 min 110 W/m 0,0 km/h (0 Bft) 97,92 %
29.09.2020 13:32 13,3 C 12,8 C 12,2 C 100 % 1016,8 hPa 0,0 l/m 0 min 0 min 109 W/m 6,4 km/h (2 Bft) 97,96 %
29.09.2020 13:34 13,2 C 12,8 C 12,2 C 100 % 1016,8 hPa 0,0 l/m 0 min 0 min 114 W/m 3,2 km/h (1 Bft) 97,83 %
29.09.2020 13:36 13,2 C 12,8 C 12,2 C 100 % 1016,9 hPa 0,0 l/m 0 min 0 min 115 W/m 0,0 km/h (0 Bft) 97,92 %
29.09.2020 13:38 13,3 C 12,8 C 12,2 C 100 % 1016,9 hPa 0,0 l/m 0 min 0 min 108 W/m 0,0 km/h (0 Bft) 97,92 %
29.09.2020 13:40 13,3 C 12,8 C 12,2 C 100 % 1016,9 hPa 0,0 l/m 0 min 0 min 106 W/m 3,2 km/h (1 Bft) 93,75 %
29.09.2020 13:42 13,3 C 12,8 C 12,2 C 100 % 1016,8 hPa 0,0 l/m 0 min 0 min 112 W/m 6,4 km/h (2 Bft) 97,87 %
29.09.2020 13:44 13,3 C 12,8 C 12,2 C 100 % 1016,8 hPa 0,0 l/m 0 min 0 min 119 W/m 0,0 km/h (0 Bft) 97,87 %
29.09.2020 13:46 13,3 C 12,8 C 12,2 C 100 % 1016,8 hPa 0,0 l/m 0 min 0 min 123 W/m 3,2 km/h (1 Bft) 95,74 %
29.09.2020 13:48 13,3 C 12,8 C 12,2 C 100 % 1016,8 hPa 0,0 l/m 0 min 0 min 130 W/m 0,0 km/h (0 Bft) 97,87 %
29.09.2020 13:50 13,3 C 12,8 C 12,2 C 100 % 1016,8 hPa 0,0 l/m 0 min 2 min 141 W/m 3,2 km/h (1 Bft) 97,83 %
29.09.2020 13:52 13,3 C 12,8 C 12,2 C 100 % 1016,8 hPa 0,0 l/m 0 min 2 min 151 W/m 3,2 km/h (1 Bft) 97,87 %
29.09.2020 13:54 13,3 C 12,8 C 12,2 C 100 % 1016,8 hPa 0,0 l/m 0 min 2 min 157 W/m 3,2 km/h (1 Bft) 95,24 %
29.09.2020 13:56 13,3 C 12,8 C 12,2 C 100 % 1016,8 hPa 0,0 l/m 0 min 2 min 162 W/m 0,0 km/h (0 Bft) 97,92 %
29.09.2020 13:58 13,3 C 13,3 C 12,2 C 100 % 1016,8 hPa 0,0 l/m 0 min 2 min 174 W/m 0,0 km/h (0 Bft) 95,92 %
29.09.2020 14:00 13,3 C 13,3 C 12,8 C 100 % 1016,8 hPa 0,0 l/m 0 min 2 min 195 W/m 0,0 km/h (0 Bft) 95,83 %
29.09.2020 14:02 13,4 C 13,3 C 12,8 C 100 % 1016,8 hPa 0,0 l/m 0 min 2 min 215 W/m 6,4 km/h (2 Bft) 93,62 %
29.09.2020 14:04 13,4 C 13,3 C 12,8 C 100 % 1016,8 hPa 0,0 l/m 0 min 2 min 234 W/m 3,2 km/h (1 Bft) 97,87 %
29.09.2020 14:06 13,4 C 13,3 C 12,8 C 100 % 1016,8 hPa 0,0 l/m 0 min 2 min 241 W/m 16,1 km/h (3 Bft) 97,62 %
29.09.2020 14:08 13,4 C 13,3 C 12,8 C 100 % 1016,7 hPa 0,0 l/m 0 min 2 min 206 W/m 3,2 km/h (1 Bft) 97,87 %
29.09.2020 14:10 13,5 C 13,3 C 12,8 C 100 % 1016,8 hPa 0,0 l/m 0 min 2 min 190 W/m 9,7 km/h (2 Bft) 97,92 %
29.09.2020 14:12 13,5 C 13,3 C 12,2 C 100 % 1016,7 hPa 0,0 l/m 0 min 2 min 182 W/m 19,3 km/h (3 Bft) 93,88 %
29.09.2020 14:14 13,4 C 13,3 C 12,2 C 100 % 1016,8 hPa 0,0 l/m 0 min 0 min 173 W/m 6,4 km/h (2 Bft) 100,00 %
29.09.2020 14:16 13,5 C 13,3 C 12,8 C 100 % 1016,8 hPa 0,0 l/m 0 min 2 min 160 W/m 0,0 km/h (0 Bft) 97,92 %
29.09.2020 14:18 13,5 C 13,3 C 12,8 C 100 % 1016,8 hPa 0,0 l/m 0 min 2 min 156 W/m 3,2 km/h (1 Bft) 100,00 %
29.09.2020 14:20 13,6 C 13,3 C 12,8 C 100 % 1016,7 hPa 0,0 l/m 0 min 0 min 153 W/m 3,2 km/h (1 Bft) 93,62 %
29.09.2020 14:22 13,6 C 13,3 C 12,8 C 100 % 1016,8 hPa 0,0 l/m 0 min 0 min 146 W/m 0,0 km/h (0 Bft) 97,87 %
29.09.2020 14:24 13,6 C 13,3 C 12,8 C 100 % 1016,8 hPa 0,0 l/m 0 min 0 min 141 W/m 0,0 km/h (0 Bft) 95,74 %
29.09.2020 14:26 13,6 C 13,3 C 12,8 C 100 % 1016,8 hPa 0,0 l/m 0 min 0 min 139 W/m 3,2 km/h (1 Bft) 93,48 %
29.09.2020 14:28 13,6 C 13,3 C 12,8 C 100 % 1016,9 hPa 0,0 l/m 0 min 0 min 141 W/m 12,9 km/h (3 Bft) 93,62 %
29.09.2020 14:30 13,6 C 13,3 C 12,8 C 100 % 1016,9 hPa 0,0 l/m 0 min 0 min 139 W/m 6,4 km/h (2 Bft) 95,24 %
29.09.2020 14:32 13,7 C 13,3 C 12,8 C 100 % 1016,9 hPa 0,0 l/m 0 min 0 min 130 W/m 6,4 km/h (2 Bft) 89,58 %
29.09.2020 14:34 13,6 C 13,3 C 12,2 C 100 % 1016,9 hPa 0,0 l/m 0 min 0 min 124 W/m 19,3 km/h (3 Bft) 95,74 %
29.09.2020 14:36 13,6 C 13,3 C 12,2 C 100 % 1016,9 hPa 0,0 l/m 0 min 0 min 121 W/m 3,2 km/h (1 Bft) 95,83 %
29.09.2020 14:38 13,6 C 13,3 C 12,2 C 100 % 1016,8 hPa 0,0 l/m 0 min 0 min 121 W/m 0,0 km/h (0 Bft) 95,83 %
29.09.2020 14:40 13,6 C 13,3 C 12,8 C 100 % 1016,8 hPa 0,0 l/m 0 min 0 min 118 W/m 9,7 km/h (2 Bft) 95,56 %
29.09.2020 14:42 13,7 C 13,3 C 12,8 C 100 % 1016,8 hPa 0,0 l/m 0 min 0 min 111 W/m 3,2 km/h (1 Bft) 95,74 %
29.09.2020 14:44 13,7 C 13,3 C 12,8 C 100 % 1016,8 hPa 0,0 l/m 0 min 0 min 110 W/m 0,0 km/h (0 Bft) 95,74 %
29.09.2020 14:46 13,7 C 13,3 C 12,8 C 100 % 1016,8 hPa 0,0 l/m 0 min 0 min 113 W/m 9,7 km/h (2 Bft) 95,74 %
29.09.2020 14:48 13,7 C 13,3 C 12,8 C 100 % 1016,8 hPa 0,0 l/m 0 min 0 min 113 W/m 0,0 km/h (0 Bft) 95,12 %
29.09.2020 14:50 13,7 C 13,9 C 12,8 C 100 % 1016,8 hPa 0,0 l/m 0 min 0 min 114 W/m 0,0 km/h (0 Bft) 93,75 %
29.09.2020 14:52 13,8 C 13,9 C 12,8 C 100 % 1016,8 hPa 0,0 l/m 0 min 0 min 116 W/m 3,2 km/h (1 Bft) 95,92 %
29.09.2020 14:54 13,8 C 13,9 C 12,8 C 100 % 1016,8 hPa 0,0 l/m 0 min 0 min 116 W/m 0,0 km/h (0 Bft) 95,74 %
29.09.2020 14:56 13,8 C 13,9 C 12,8 C 100 % 1016,7 hPa 0,0 l/m 0 min 0 min 118 W/m 0,0 km/h (0 Bft) 91,49 %
29.09.2020 14:58 13,8 C 13,9 C 12,8 C 100 % 1016,7 hPa 0,0 l/m 0 min 0 min 118 W/m 0,0 km/h (0 Bft) 95,92 %
29.09.2020 15:00 13,9 C 13,9 C 12,8 C 100 % 1016,7 hPa 0,0 l/m 0 min 0 min 123 W/m 0,0 km/h (0 Bft) 95,65 %
29.09.2020 15:02 13,9 C 13,9 C 12,8 C 100 % 1016,7 hPa 0,0 l/m 0 min 0 min 138 W/m 0,0 km/h (0 Bft) 95,83 %
29.09.2020 15:04 13,9 C 14,4 C 12,8 C 100 % 1016,7 hPa 0,0 l/m 0 min 0 min 155 W/m 0,0 km/h (0 Bft) 95,74 %
29.09.2020 15:06 13,9 C 14,4 C 12,8 C 100 % 1016,7 hPa 0,0 l/m 0 min 0 min 166 W/m 0,0 km/h (0 Bft) 97,87 %
29.09.2020 15:08 13,9 C 14,4 C 12,8 C 100 % 1016,7 hPa 0,0 l/m 0 min 0 min 190 W/m 6,4 km/h (2 Bft) 97,87 %
29.09.2020 15:10 14,0 C 15,0 C 12,8 C 100 % 1016,7 hPa 0,0 l/m 2 min 0 min 258 W/m 0,0 km/h (0 Bft) 97,87 %
29.09.2020 15:12 14,1 C 16,1 C 13,3 C 100 % 1016,6 hPa 0,0 l/m 2 min 0 min 412 W/m 0,0 km/h (0 Bft) 97,83 %
29.09.2020 15:14 14,2 C 16,7 C 13,3 C 100 % 1016,7 hPa 0,0 l/m 2 min 0 min 411 W/m 0,0 km/h (0 Bft) 92,86 %
29.09.2020 15:16 14,3 C 16,7 C 13,3 C 100 % 1016,7 hPa 0,0 l/m 2 min 0 min 322 W/m 0,0 km/h (0 Bft) 97,92 %
29.09.2020 15:18 14,3 C 16,1 C 13,3 C 100 % 1016,7 hPa 0,0 l/m 2 min 0 min 264 W/m 0,0 km/h (0 Bft) 97,92 %
29.09.2020 15:20 14,3 C 16,1 C 13,3 C 100 % 1016,7 hPa 0,0 l/m 0 min 0 min 238 W/m 0,0 km/h (0 Bft) 97,87 %
29.09.2020 15:22 14,3 C 15,6 C 13,3 C 100 % 1016,7 hPa 0,0 l/m 0 min 0 min 208 W/m 0,0 km/h (0 Bft) 100,00 %
29.09.2020 15:24 14,3 C 15,6 C 13,3 C 100 % 1016,7 hPa 0,0 l/m 0 min 0 min 173 W/m 3,2 km/h (1 Bft) 97,92 %
29.09.2020 15:26 14,3 C 15,0 C 13,3 C 100 % 1016,6 hPa 0,0 l/m 0 min 0 min 154 W/m 3,2 km/h (1 Bft) 100,00 %
29.09.2020 15:28 14,4 C 15,0 C 13,3 C 100 % 1016,6 hPa 0,0 l/m 0 min 0 min 155 W/m 3,2 km/h (1 Bft) 95,74 %
29.09.2020 15:30 14,4 C 15,6 C 13,3 C 100 % 1016,6 hPa 0,0 l/m 0 min 0 min 169 W/m 3,2 km/h (1 Bft) 100,00 %
29.09.2020 15:32 14,4 C 15,0 C 13,3 C 100 % 1016,6 hPa 0,0 l/m 0 min 0 min 193 W/m 6,4 km/h (2 Bft) 100,00 %
29.09.2020 15:34 14,5 C 15,0 C 13,3 C 100 % 1016,6 hPa 0,0 l/m 0 min 0 min 193 W/m 9,7 km/h (2 Bft) 100,00 %
29.09.2020 15:36 14,5 C 15,6 C 13,3 C 100 % 1016,6 hPa 0,0 l/m 0 min 0 min 196 W/m 6,4 km/h (2 Bft) 100,00 %
29.09.2020 15:38 14,5 C 15,6 C 13,3 C 99 % 1016,7 hPa 0,0 l/m 0 min 0 min 197 W/m 6,4 km/h (2 Bft) 100,00 %
29.09.2020 15:40 14,5 C 15,0 C 13,3 C 99 % 1016,6 hPa 0,0 l/m 0 min 0 min 194 W/m 9,7 km/h (2 Bft) 100,00 %
29.09.2020 15:42 14,5 C 15,0 C 13,3 C 99 % 1016,6 hPa 0,0 l/m 0 min 0 min 191 W/m 6,4 km/h (2 Bft) 100,00 %
29.09.2020 15:44 14,6 C 15,6 C 13,3 C 99 % 1016,6 hPa 0,0 l/m 0 min 0 min 188 W/m 6,4 km/h (2 Bft) 95,83 %
29.09.2020 15:46 14,6 C 15,6 C 13,3 C 99 % 1016,6 hPa 0,0 l/m 0 min 0 min 189 W/m 6,4 km/h (2 Bft) 97,78 %
29.09.2020 15:48 14,6 C 15,0 C 13,3 C 99 % 1016,6 hPa 0,0 l/m 0 min 0 min 195 W/m 6,4 km/h (2 Bft) 97,83 %
29.09.2020 15:50 14,6 C 15,6 C 13,3 C 99 % 1016,6 hPa 0,0 l/m 0 min 0 min 197 W/m 0,0 km/h (0 Bft) 100,00 %
29.09.2020 15:52 14,7 C 15,6 C 13,3 C 99 % 1016,6 hPa 0,0 l/m 0 min 0 min 197 W/m 9,7 km/h (2 Bft) 100,00 %
29.09.2020 15:54 14,7 C 15,6 C 13,3 C 99 % 1016,6 hPa 0,0 l/m 0 min 0 min 193 W/m 6,4 km/h (2 Bft) 100,00 %
29.09.2020 15:56 14,7 C 15,6 C 13,3 C 99 % 1016,6 hPa 0,0 l/m 0 min 0 min 187 W/m 0,0 km/h (0 Bft) 100,00 %
29.09.2020 15:58 14,7 C 15,6 C 13,3 C 99 % 1016,6 hPa 0,0 l/m 0 min 0 min 178 W/m 6,4 km/h (2 Bft) 100,00 %
29.09.2020 16:00 14,8 C 15,6 C 13,3 C 99 % 1016,7 hPa 0,0 l/m 0 min 0 min 167 W/m 3,2 km/h (1 Bft) 100,00 %
29.09.2020 16:02 14,8 C 15,6 C 13,3 C 99 % 1016,7 hPa 0,0 l/m 0 min 0 min 161 W/m 3,2 km/h (1 Bft) 100,00 %
29.09.2020 16:04 14,8 C 15,6 C 13,3 C 98 % 1016,7 hPa 0,0 l/m 0 min 0 min 162 W/m 0,0 km/h (0 Bft) 100,00 %
29.09.2020 16:06 14,8 C 15,6 C 13,3 C 98 % 1016,6 hPa 0,0 l/m 0 min 0 min 162 W/m 0,0 km/h (0 Bft) 100,00 %
29.09.2020 16:08 14,9 C 15,6 C 13,3 C 98 % 1016,7 hPa 0,0 l/m 0 min 0 min 159 W/m 0,0 km/h (0 Bft) 100,00 %
29.09.2020 16:10 14,9 C 15,6 C 13,3 C 98 % 1016,6 hPa 0,0 l/m 0 min 0 min 188 W/m 0,0 km/h (0 Bft) 100,00 %
29.09.2020 16:12 14,9 C 16,1 C 13,3 C 98 % 1016,7 hPa 0,0 l/m 2 min 0 min 229 W/m 0,0 km/h (0 Bft) 100,00 %
29.09.2020 16:14 14,9 C 16,7 C 13,3 C 97 % 1016,6 hPa 0,0 l/m 2 min 0 min 240 W/m 6,4 km/h (2 Bft) 100,00 %
29.09.2020 16:16 15,0 C 17,2 C 13,3 C 97 % 1016,7 hPa 0,0 l/m 2 min 0 min 251 W/m 3,2 km/h (1 Bft) 95,83 %
29.09.2020 16:18 15,1 C 17,8 C 13,3 C 97 % 1016,7 hPa 0,0 l/m 2 min 0 min 260 W/m 3,2 km/h (1 Bft) 100,00 %
29.09.2020 16:20 15,1 C 17,8 C 13,3 C 96 % 1016,7 hPa 0,0 l/m 0 min 0 min 201 W/m 3,2 km/h (1 Bft) 100,00 %
29.09.2020 16:22 15,1 C 18,9 C 13,9 C 96 % 1016,6 hPa 0,0 l/m 2 min 0 min 207 W/m 0,0 km/h (0 Bft) 100,00 %
29.09.2020 16:24 15,2 C 20,0 C 15,0 C 95 % 1016,6 hPa 0,0 l/m 2 min 0 min 204 W/m 3,2 km/h (1 Bft) 100,00 %
29.09.2020 16:26 15,3 C 20,6 C 15,0 C 95 % 1016,6 hPa 0,0 l/m 2 min 0 min 254 W/m 3,2 km/h (1 Bft) 95,74 %
29.09.2020 16:28 15,4 C 21,1 C 15,0 C 95 % 1016,6 hPa 0,0 l/m 2 min 0 min 258 W/m 0,0 km/h (0 Bft) 100,00 %
29.09.2020 16:30 15,5 C 21,7 C 15,0 C 95 % 1016,6 hPa 0,0 l/m 2 min 0 min 312 W/m 0,0 km/h (0 Bft) 97,87 %
29.09.2020 16:32 15,7 C 22,2 C 14,4 C 95 % 1016,6 hPa 0,0 l/m 2 min 0 min 443 W/m 0,0 km/h (0 Bft) 95,92 %
29.09.2020 16:34 15,8 C 21,1 C 14,4 C 95 % 1016,7 hPa 0,0 l/m 2 min 0 min 334 W/m 0,0 km/h (0 Bft) 97,87 %
29.09.2020 16:36 16,0 C 20,6 C 14,4 C 95 % 1016,6 hPa 0,0 l/m 2 min 0 min 279 W/m 3,2 km/h (1 Bft) 97,92 %
29.09.2020 16:38 16,1 C 18,9 C 13,9 C 94 % 1016,6 hPa 0,0 l/m 2 min 0 min 220 W/m 9,7 km/h (2 Bft) 95,83 %
29.09.2020 16:40 16,2 C 18,3 C 13,9 C 93 % 1016,6 hPa 0,0 l/m 0 min 0 min 144 W/m 9,7 km/h (2 Bft) 97,87 %
29.09.2020 16:42 16,2 C 18,3 C 13,3 C 92 % 1016,6 hPa 0,0 l/m 0 min 0 min 150 W/m 6,4 km/h (2 Bft) 97,78 %
29.09.2020 16:44 16,3 C 18,3 C 13,3 C 92 % 1016,6 hPa 0,0 l/m 0 min 0 min 153 W/m 3,2 km/h (1 Bft) 97,87 %
29.09.2020 16:46 16,4 C 17,8 C 13,3 C 91 % 1016,6 hPa 0,0 l/m 0 min 0 min 138 W/m 0,0 km/h (0 Bft) 95,12 %
29.09.2020 16:48 16,4 C 17,8 C 13,3 C 90 % 1016,6 hPa 0,0 l/m 0 min 0 min 132 W/m 0,0 km/h (0 Bft) 95,83 %
29.09.2020 16:50 16,4 C 18,3 C 13,9 C 90 % 1016,6 hPa 0,0 l/m 0 min 0 min 154 W/m 0,0 km/h (0 Bft) 95,83 %
29.09.2020 16:52 16,6 C 18,9 C 14,4 C 89 % 1016,6 hPa 0,0 l/m 2 min 0 min 281 W/m 0,0 km/h (0 Bft) 93,88 %
29.09.2020 16:54 16,6 C 18,3 C 14,4 C 89 % 1016,6 hPa 0,0 l/m 2 min 0 min 305 W/m 0,0 km/h (0 Bft) 93,48 %
29.09.2020 16:56 16,8 C 18,9 C 15,0 C 90 % 1016,6 hPa 0,0 l/m 2 min 0 min 281 W/m 0,0 km/h (0 Bft) 95,83 %
29.09.2020 16:58 16,9 C 20,0 C 15,0 C 90 % 1016,6 hPa 0,0 l/m 2 min 0 min 339 W/m 0,0 km/h (0 Bft) 95,74 %
29.09.2020 17:00 17,0 C 21,1 C 15,6 C 90 % 1016,5 hPa 0,0 l/m 2 min 0 min 417 W/m 0,0 km/h (0 Bft) 95,74 %
29.09.2020 17:02 17,1 C 20,6 C 15,6 C 91 % 1016,6 hPa 0,0 l/m 2 min 0 min 384 W/m 0,0 km/h (0 Bft) 95,24 %
29.09.2020 17:04 17,2 C 18,9 C 15,0 C 91 % 1016,5 hPa 0,0 l/m 0 min 0 min 142 W/m 0,0 km/h (0 Bft) 95,74 %
29.09.2020 17:06 17,2 C 18,3 C 14,4 C 90 % 1016,6 hPa 0,0 l/m 0 min 0 min 142 W/m 0,0 km/h (0 Bft) 93,62 %
29.09.2020 17:08 17,3 C 18,9 C 14,4 C 90 % 1016,6 hPa 0,0 l/m 0 min 0 min 137 W/m 0,0 km/h (0 Bft) 95,83 %
29.09.2020 17:10 17,3 C 18,3 C 13,9 C 90 % 1016,6 hPa 0,0 l/m 0 min 0 min 136 W/m 0,0 km/h (0 Bft) 93,75 %
29.09.2020 17:12 17,4 C 18,9 C 13,9 C 89 % 1016,6 hPa 0,0 l/m 2 min 0 min 213 W/m 0,0 km/h (0 Bft) 93,75 %
29.09.2020 17:14 17,4 C 18,3 C 13,9 C 89 % 1016,6 hPa 0,0 l/m 2 min 0 min 297 W/m 3,2 km/h (1 Bft) 89,58 %
29.09.2020 17:16 17,4 C 17,8 C 13,9 C 89 % 1016,6 hPa 0,0 l/m 0 min 0 min 125 W/m 0,0 km/h (0 Bft) 93,62 %
29.09.2020 17:18 17,4 C 17,8 C 13,9 C 88 % 1016,6 hPa 0,0 l/m 0 min 0 min 117 W/m 3,2 km/h (1 Bft) 95,74 %
29.09.2020 17:20 17,4 C 17,2 C 13,9 C 88 % 1016,6 hPa 0,0 l/m 0 min 0 min 102 W/m 6,4 km/h (2 Bft) 93,62 %
29.09.2020 17:22 17,4 C 17,2 C 13,9 C 87 % 1016,6 hPa 0,0 l/m 0 min 0 min 111 W/m 3,2 km/h (1 Bft) 93,48 %
29.09.2020 17:24 17,4 C 17,2 C 13,9 C 87 % 1016,6 hPa 0,0 l/m 0 min 0 min 115 W/m 6,4 km/h (2 Bft) 93,62 %
29.09.2020 17:26 17,4 C 17,2 C 13,3 C 86 % 1016,7 hPa 0,0 l/m 2 min 0 min 157 W/m 6,4 km/h (2 Bft) 95,74 %
29.09.2020 17:28 17,4 C 16,7 C 13,9 C 86 % 1016,7 hPa 0,0 l/m 0 min 0 min 114 W/m 6,4 km/h (2 Bft) 92,86 %
29.09.2020 17:30 17,4 C 17,2 C 13,3 C 86 % 1016,7 hPa 0,0 l/m 2 min 0 min 150 W/m 3,2 km/h (1 Bft) 95,74 %
29.09.2020 17:32 17,4 C 18,3 C 13,9 C 85 % 1016,8 hPa 0,0 l/m 2 min 0 min 267 W/m 0,0 km/h (0 Bft) 95,92 %
29.09.2020 17:34 17,4 C 18,3 C 13,9 C 85 % 1016,7 hPa 0,0 l/m 2 min 0 min 276 W/m 0,0 km/h (0 Bft) 91,49 %
29.09.2020 17:36 17,3 C 17,8 C 13,9 C 85 % 1016,8 hPa 0,0 l/m 2 min 0 min 134 W/m 0,0 km/h (0 Bft) 97,92 %
29.09.2020 17:38 17,3 C 17,8 C 13,9 C 85 % 1016,8 hPa 0,0 l/m 2 min 0 min 154 W/m 6,4 km/h (2 Bft) 95,83 %
29.09.2020 17:40 17,3 C 17,2 C 13,9 C 85 % 1016,7 hPa 0,0 l/m 2 min 0 min 134 W/m 6,4 km/h (2 Bft) 97,87 %
29.09.2020 17:42 17,3 C 16,7 C 13,9 C 85 % 1016,7 hPa 0,0 l/m 2 min 0 min 120 W/m 12,9 km/h (3 Bft) 97,92 %
29.09.2020 17:44 17,3 C 16,1 C 13,3 C 85 % 1016,7 hPa 0,0 l/m 0 min 0 min 107 W/m 16,1 km/h (3 Bft) 97,92 %
29.09.2020 17:46 17,2 C 16,1 C 13,3 C 85 % 1016,7 hPa 0,0 l/m 0 min 0 min 100 W/m 16,1 km/h (3 Bft) 97,92 %
29.09.2020 17:48 17,1 C 16,1 C 13,3 C 85 % 1016,7 hPa 0,0 l/m 0 min 0 min 96 W/m 19,3 km/h (3 Bft) 97,92 %
29.09.2020 17:50 17,1 C 15,6 C 13,3 C 86 % 1016,7 hPa 0,0 l/m 0 min 0 min 97 W/m 16,1 km/h (3 Bft) 100,00 %
29.09.2020 17:52 17,0 C 15,6 C 13,3 C 86 % 1016,8 hPa 0,0 l/m 0 min 0 min 94 W/m 19,3 km/h (3 Bft) 100,00 %
29.09.2020 17:54 16,9 C 16,1 C 13,3 C 86 % 1016,7 hPa 0,0 l/m 0 min 0 min 96 W/m 19,3 km/h (3 Bft) 100,00 %
29.09.2020 17:56 16,8 C 16,1 C 13,3 C 86 % 1016,7 hPa 0,0 l/m 0 min 0 min 85 W/m 6,4 km/h (2 Bft) 97,83 %
29.09.2020 17:58 16,8 C 15,6 C 13,3 C 87 % 1016,7 hPa 0,0 l/m 0 min 0 min 79 W/m 19,3 km/h (3 Bft) 100,00 %
29.09.2020 18:00 16,7 C 15,6 C 13,3 C 87 % 1016,8 hPa 0,0 l/m 0 min 0 min 77 W/m 16,1 km/h (3 Bft) 100,00 %
29.09.2020 18:02 16,7 C 15,6 C 13,3 C 87 % 1016,9 hPa 0,0 l/m 0 min 0 min 72 W/m 12,9 km/h (3 Bft) 100,00 %
29.09.2020 18:04 16,6 C 15,0 C 13,3 C 87 % 1016,8 hPa 0,0 l/m 0 min 0 min 67 W/m 16,1 km/h (3 Bft) 98,00 %
29.09.2020 18:07 16,5 C 15,0 C 13,3 C 88 % 1016,8 hPa 0,0 l/m 0 min 0 min 60 W/m 12,9 km/h (3 Bft) 98,00 %
29.09.2020 18:08 16,4 C 15,0 C 13,3 C 88 % 1016,9 hPa 0,0 l/m 0 min 0 min 62 W/m 12,9 km/h (3 Bft) 100,00 %
29.09.2020 18:10 16,4 C 14,4 C 12,8 C 88 % 1016,9 hPa 0,0 l/m 0 min 0 min 58 W/m 12,9 km/h (3 Bft) 100,00 %
29.09.2020 18:12 16,3 C 14,4 C 12,8 C 88 % 1016,9 hPa 0,0 l/m 0 min 0 min 56 W/m 16,1 km/h (3 Bft) 100,00 %
29.09.2020 18:14 16,2 C 14,4 C 12,8 C 88 % 1017,0 hPa 0,0 l/m 0 min 0 min 53 W/m 9,7 km/h (2 Bft) 100,00 %
29.09.2020 18:16 16,2 C 14,4 C 12,8 C 88 % 1016,9 hPa 0,0 l/m 0 min 0 min 50 W/m 12,9 km/h (3 Bft) 100,00 %
29.09.2020 18:18 16,1 C 14,4 C 12,8 C 89 % 1017,0 hPa 0,0 l/m 0 min 0 min 49 W/m 0,0 km/h (0 Bft) 100,00 %
29.09.2020 18:20 16,1 C 14,4 C 12,8 C 89 % 1016,9 hPa 0,0 l/m 0 min 0 min 45 W/m 16,1 km/h (3 Bft) 97,83 %
29.09.2020 18:22 15,9 C 14,4 C 12,8 C 89 % 1016,9 hPa 0,0 l/m 0 min 0 min 42 W/m 6,4 km/h (2 Bft) 100,00 %
29.09.2020 18:24 15,9 C 14,4 C 12,8 C 89 % 1016,9 hPa 0,0 l/m 0 min 0 min 39 W/m 6,4 km/h (2 Bft) 97,87 %
29.09.2020 18:26 15,8 C 14,4 C 12,8 C 89 % 1017,0 hPa 0,0 l/m 0 min 0 min 38 W/m 6,4 km/h (2 Bft) 100,00 %
29.09.2020 18:28 15,8 C 13,9 C 12,8 C 89 % 1017,0 hPa 0,0 l/m 0 min 0 min 36 W/m 12,9 km/h (3 Bft) 100,00 %
29.09.2020 18:30 15,7 C 13,9 C 12,8 C 90 % 1017,0 hPa 0,0 l/m 0 min 0 min 37 W/m 12,9 km/h (3 Bft) 100,00 %
29.09.2020 18:32 15,7 C 13,9 C 12,8 C 89 % 1017,0 hPa 0,0 l/m 0 min 0 min 38 W/m 12,9 km/h (3 Bft) 100,00 %
29.09.2020 18:34 15,6 C 13,9 C 12,8 C 90 % 1017,0 hPa 0,0 l/m 0 min 0 min 37 W/m 16,1 km/h (3 Bft) 100,00 %
29.09.2020 18:36 15,6 C 13,9 C 12,8 C 90 % 1017,0 hPa 0,0 l/m 0 min 0 min 34 W/m 12,9 km/h (3 Bft) 97,92 %
29.09.2020 18:38 15,5 C 13,9 C 12,8 C 90 % 1017,1 hPa 0,0 l/m 0 min 0 min 33 W/m 6,4 km/h (2 Bft) 100,00 %
29.09.2020 18:40 15,4 C 13,9 C 12,8 C 90 % 1017,0 hPa 0,0 l/m 0 min 0 min 29 W/m 6,4 km/h (2 Bft) 100,00 %
29.09.2020 18:42 15,4 C 13,9 C 12,8 C 90 % 1017,0 hPa 0,0 l/m 0 min 0 min 25 W/m 6,4 km/h (2 Bft) 100,00 %
29.09.2020 18:44 15,3 C 13,9 C 12,2 C 90 % 1017,0 hPa 0,0 l/m 0 min 0 min 22 W/m 6,4 km/h (2 Bft) 100,00 %
29.09.2020 18:46 15,2 C 13,9 C 12,2 C 90 % 1017,1 hPa 0,0 l/m 0 min 0 min 21 W/m 12,9 km/h (3 Bft) 100,00 %
29.09.2020 18:48 15,2 C 13,9 C 12,2 C 90 % 1017,1 hPa 0,0 l/m 0 min 0 min 23 W/m 12,9 km/h (3 Bft) 100,00 %
29.09.2020 18:50 15,1 C 13,9 C 12,2 C 91 % 1017,1 hPa 0,0 l/m 0 min 0 min 23 W/m 12,9 km/h (3 Bft) 100,00 %
29.09.2020 18:52 15,1 C 13,3 C 12,2 C 91 % 1017,1 hPa 0,0 l/m 0 min 0 min 21 W/m 6,4 km/h (2 Bft) 100,00 %
29.09.2020 18:54 15,0 C 13,3 C 12,2 C 91 % 1017,1 hPa 0,0 l/m 0 min 0 min 18 W/m 12,9 km/h (3 Bft) 100,00 %
29.09.2020 18:56 14,9 C 13,3 C 12,2 C 91 % 1017,1 hPa 0,0 l/m 0 min 0 min 17 W/m 6,4 km/h (2 Bft) 97,92 %
29.09.2020 18:58 14,9 C 13,3 C 12,2 C 91 % 1017,1 hPa 0,0 l/m 0 min 0 min 16 W/m 6,4 km/h (2 Bft) 97,92 %
29.09.2020 19:00 14,9 C 13,3 C 12,2 C 91 % 1017,1 hPa 0,0 l/m 0 min 0 min 14 W/m 3,2 km/h (1 Bft) 100,00 %
29.09.2020 19:02 14,8 C 13,3 C 12,2 C 91 % 1017,1 hPa 0,0 l/m 0 min 0 min 12 W/m 3,2 km/h (1 Bft) 100,00 %
29.09.2020 19:04 14,8 C 13,3 C 12,2 C 91 % 1017,1 hPa 0,0 l/m 0 min 0 min 11 W/m 6,4 km/h (2 Bft) 100,00 %
29.09.2020 19:06 14,8 C 13,3 C 12,2 C 91 % 1017,1 hPa 0,0 l/m 0 min 0 min 11 W/m 12,9 km/h (3 Bft) 97,92 %
29.09.2020 19:08 14,7 C 13,3 C 12,2 C 91 % 1017,2 hPa 0,0 l/m 0 min 0 min 9 W/m 6,4 km/h (2 Bft) 100,00 %
29.09.2020 19:10 14,7 C 13,3 C 12,2 C 91 % 1017,2 hPa 0,0 l/m 0 min 0 min 8 W/m 12,9 km/h (3 Bft) 100,00 %
29.09.2020 19:12 14,6 C 12,8 C 12,2 C 91 % 1017,1 hPa 0,0 l/m 0 min 0 min 6 W/m 12,9 km/h (3 Bft) 100,00 %
29.09.2020 19:14 14,6 C 12,8 C 12,2 C 91 % 1017,2 hPa 0,0 l/m 0 min 0 min 5 W/m 16,1 km/h (3 Bft) 100,00 %
29.09.2020 19:16 14,5 C 12,8 C 12,2 C 91 % 1017,2 hPa 0,0 l/m 0 min 0 min 5 W/m 6,4 km/h (2 Bft) 97,87 %
29.09.2020 19:18 14,4 C 12,8 C 11,7 C 91 % 1017,2 hPa 0,0 l/m 0 min 0 min 0 W/m 6,4 km/h (2 Bft) 97,83 %
29.09.2020 19:20 14,3 C 12,8 C 11,7 C 91 % 1017,2 hPa 0,0 l/m 0 min 0 min 0 W/m 12,9 km/h (3 Bft) 95,74 %
29.09.2020 19:22 14,3 C 12,8 C 11,7 C 91 % 1017,2 hPa 0,0 l/m 0 min 0 min 0 W/m 19,3 km/h (3 Bft) 97,62 %
29.09.2020 19:24 14,3 C 12,8 C 11,7 C 91 % 1017,2 hPa 0,0 l/m 0 min 0 min 0 W/m 0,0 km/h (0 Bft) 97,87 %
29.09.2020 19:26 14,3 C 12,8 C 11,7 C 91 % 1017,2 hPa 0,0 l/m 0 min 0 min 0 W/m 12,9 km/h (3 Bft) 97,92 %
29.09.2020 19:28 14,3 C 12,8 C 11,7 C 91 % 1017,2 hPa 0,0 l/m 0 min 0 min 0 W/m 12,9 km/h (3 Bft) 95,83 %
29.09.2020 19:30 14,3 C 12,2 C 11,7 C 92 % 1017,2 hPa 0,0 l/m 0 min 0 min 0 W/m 6,4 km/h (2 Bft) 95,83 %
29.09.2020 19:32 14,2 C 12,2 C 11,7 C 92 % 1017,2 hPa 0,0 l/m 0 min 0 min 0 W/m 12,9 km/h (3 Bft) 93,75 %
29.09.2020 19:34 14,2 C 12,2 C 11,7 C 92 % 1017,2 hPa 0,0 l/m 0 min 0 min 0 W/m 12,9 km/h (3 Bft) 95,74 %
29.09.2020 19:36 14,1 C 12,2 C 11,7 C 92 % 1017,2 hPa 0,0 l/m 0 min 0 min 0 W/m 6,4 km/h (2 Bft) 95,74 %
29.09.2020 19:38 14,1 C 12,2 C 11,7 C 92 % 1017,2 hPa 0,0 l/m 0 min 0 min 0 W/m 3,2 km/h (1 Bft) 95,74 %
29.09.2020 19:40 14,0 C 12,2 C 11,7 C 92 % 1017,2 hPa 0,0 l/m 0 min 0 min 0 W/m 3,2 km/h (1 Bft) 95,65 %
29.09.2020 19:42 13,9 C 12,2 C 11,7 C 92 % 1017,2 hPa 0,0 l/m 0 min 0 min 0 W/m 6,4 km/h (2 Bft) 97,87 %
29.09.2020 19:44 13,9 C 12,2 C 11,7 C 92 % 1017,2 hPa 0,0 l/m 0 min 0 min 0 W/m 3,2 km/h (1 Bft) 92,86 %
29.09.2020 19:46 13,9 C 12,2 C 11,7 C 92 % 1017,3 hPa 0,0 l/m 0 min 0 min 0 W/m 3,2 km/h (1 Bft) 91,67 %
29.09.2020 19:48 13,8 C 12,2 C 11,1 C 92 % 1017,3 hPa 0,0 l/m 0 min 0 min 0 W/m 6,4 km/h (2 Bft) 95,74 %
29.09.2020 19:50 13,8 C 12,2 C 11,1 C 92 % 1017,3 hPa 0,0 l/m 0 min 0 min 0 W/m 3,2 km/h (1 Bft) 93,75 %
29.09.2020 19:52 13,7 C 12,2 C 11,1 C 92 % 1017,2 hPa 0,0 l/m 0 min 0 min 0 W/m 12,9 km/h (3 Bft) 95,83 %
29.09.2020 19:54 13,7 C 12,2 C 11,1 C 92 % 1017,3 hPa 0,0 l/m 0 min 0 min 0 W/m 12,9 km/h (3 Bft) 95,83 %
29.09.2020 19:56 13,6 C 12,2 C 11,1 C 92 % 1017,3 hPa 0,0 l/m 0 min 0 min 0 W/m 12,9 km/h (3 Bft) 95,74 %
29.09.2020 19:58 13,6 C 12,2 C 11,1 C 92 % 1017,2 hPa 0,0 l/m 0 min 0 min 0 W/m 12,9 km/h (3 Bft) 95,74 %
29.09.2020 20:00 13,6 C 12,2 C 11,1 C 92 % 1017,2 hPa 0,0 l/m 0 min 0 min 0 W/m 6,4 km/h (2 Bft) 95,74 %
29.09.2020 20:02 13,5 C 11,7 C 11,1 C 92 % 1017,3 hPa 0,0 l/m 0 min 0 min 0 W/m 6,4 km/h (2 Bft) 95,12 %
29.09.2020 20:04 13,4 C 11,7 C 11,1 C 92 % 1017,3 hPa 0,0 l/m 0 min 0 min 0 W/m 6,4 km/h (2 Bft) 92,31 %
29.09.2020 20:06 13,4 C 11,7 C 11,1 C 92 % 1017,2 hPa 0,0 l/m 0 min 0 min 0 W/m 6,4 km/h (2 Bft) 95,74 %
29.09.2020 20:08 13,4 C 11,7 C 11,1 C 92 % 1017,2 hPa 0,0 l/m 0 min 0 min 0 W/m 6,4 km/h (2 Bft) 95,74 %
29.09.2020 20:10 13,3 C 11,7 C 11,1 C 92 % 1017,3 hPa 0,0 l/m 0 min 0 min 0 W/m 3,2 km/h (1 Bft) 92,86 %
29.09.2020 20:12 13,3 C 11,7 C 11,1 C 92 % 1017,2 hPa 0,0 l/m 0 min 0 min 0 W/m 3,2 km/h (1 Bft) 95,83 %
29.09.2020 20:14 13,3 C 11,7 C 11,1 C 92 % 1017,2 hPa 0,0 l/m 0 min 0 min 0 W/m 3,2 km/h (1 Bft) 95,83 %
29.09.2020 20:16 13,2 C 11,7 C 11,1 C 92 % 1017,2 hPa 0,0 l/m 0 min 0 min 0 W/m 12,9 km/h (3 Bft) 97,92 %
29.09.2020 20:18 13,2 C 11,7 C 11,1 C 92 % 1017,3 hPa 0,0 l/m 0 min 0 min 0 W/m 12,9 km/h (3 Bft) 97,92 %
29.09.2020 20:20 13,2 C 11,7 C 11,1 C 92 % 1017,2 hPa 0,0 l/m 0 min 0 min 0 W/m 3,2 km/h (1 Bft) 95,74 %
29.09.2020 20:22 13,1 C 11,7 C 11,1 C 92 % 1017,2 hPa 0,0 l/m 0 min 0 min 0 W/m 0,0 km/h (0 Bft) 97,87 %
29.09.2020 20:24 13,1 C 11,7 C 11,1 C 93 % 1017,2 hPa 0,0 l/m 0 min 0 min 0 W/m 6,4 km/h (2 Bft) 97,87 %
29.09.2020 20:26 13,0 C 11,7 C 11,1 C 93 % 1017,2 hPa 0,0 l/m 0 min 0 min 0 W/m 12,9 km/h (3 Bft) 97,83 %
29.09.2020 20:28 12,9 C 11,7 C 11,1 C 93 % 1017,2 hPa 0,0 l/m 0 min 0 min 0 W/m 12,9 km/h (3 Bft) 97,87 %
29.09.2020 20:30 12,9 C 11,7 C 11,1 C 93 % 1017,3 hPa 0,0 l/m 0 min 0 min 0 W/m 12,9 km/h (3 Bft) 97,62 %
29.09.2020 20:32 12,9 C 11,7 C 11,1 C 93 % 1017,3 hPa 0,0 l/m 0 min 0 min 0 W/m 6,4 km/h (2 Bft) 97,87 %
29.09.2020 20:34 12,8 C 11,7 C 11,1 C 93 % 1017,3 hPa 0,0 l/m 0 min 0 min 0 W/m 6,4 km/h (2 Bft) 97,87 %
29.09.2020 20:36 12,8 C 11,7 C 11,1 C 93 % 1017,3 hPa 0,0 l/m 0 min 0 min 0 W/m 12,9 km/h (3 Bft) 97,83 %
29.09.2020 20:38 12,8 C 11,7 C 11,1 C 93 % 1017,3 hPa 0,0 l/m 0 min 0 min 0 W/m 12,9 km/h (3 Bft) 97,87 %
29.09.2020 20:40 12,7 C 11,7 C 11,1 C 93 % 1017,3 hPa 0,0 l/m 0 min 0 min 0 W/m 12,9 km/h (3 Bft) 97,87 %
29.09.2020 20:42 12,7 C 11,7 C 10,6 C 93 % 1017,3 hPa 0,0 l/m 0 min 0 min 0 W/m 12,9 km/h (3 Bft) 97,87 %
29.09.2020 20:44 12,7 C 11,7 C 10,6 C 93 % 1017,3 hPa 0,0 l/m 0 min 0 min 0 W/m 6,4 km/h (2 Bft) 97,87 %
29.09.2020 20:46 12,7 C 11,7 C 10,6 C 93 % 1017,3 hPa 0,0 l/m 0 min 0 min 0 W/m 0,0 km/h (0 Bft) 95,65 %
29.09.2020 20:48 12,6 C 11,7 C 10,6 C 93 % 1017,2 hPa 0,0 l/m 0 min 0 min 0 W/m 12,9 km/h (3 Bft) 98,25 %
29.09.2020 20:50 12,6 C 11,7 C 10,6 C 93 % 1017,2 hPa 0,0 l/m 0 min 0 min 0 W/m 12,9 km/h (3 Bft) 97,83 %
29.09.2020 20:52 12,6 C 11,7 C 10,6 C 93 % 1017,3 hPa 0,0 l/m 0 min 0 min 0 W/m 12,9 km/h (3 Bft) 95,74 %
29.09.2020 20:54 12,5 C 11,7 C 10,6 C 93 % 1017,3 hPa 0,0 l/m 0 min 0 min 0 W/m 0,0 km/h (0 Bft) 97,87 %
29.09.2020 20:56 12,5 C 11,7 C 10,6 C 93 % 1017,3 hPa 0,0 l/m 0 min 0 min 0 W/m 6,4 km/h (2 Bft) 97,87 %
29.09.2020 20:58 12,5 C 11,1 C 10,6 C 93 % 1017,3 hPa 0,0 l/m 0 min 0 min 0 W/m 6,4 km/h (2 Bft) 97,87 %
29.09.2020 21:00 12,4 C 11,1 C 10,6 C 93 % 1017,3 hPa 0,0 l/m 0 min 0 min 0 W/m 12,9 km/h (3 Bft) 97,87 %
29.09.2020 21:02 12,4 C 11,1 C 10,6 C 93 % 1017,3 hPa 0,0 l/m 0 min 0 min 0 W/m 6,4 km/h (2 Bft) 97,83 %
29.09.2020 21:04 12,4 C 11,1 C 10,6 C 93 % 1017,3 hPa 0,0 l/m 0 min 0 min 0 W/m 6,4 km/h (2 Bft) 97,87 %
29.09.2020 21:06 12,4 C 11,1 C 10,6 C 93 % 1017,3 hPa 0,0 l/m 0 min 0 min 0 W/m 12,9 km/h (3 Bft) 97,87 %
29.09.2020 21:08 12,4 C 11,1 C 10,6 C 93 % 1017,3 hPa 0,0 l/m 0 min 0 min 0 W/m 12,9 km/h (3 Bft) 97,87 %
29.09.2020 21:10 12,3 C 11,1 C 10,6 C 93 % 1017,3 hPa 0,0 l/m 0 min 0 min 0 W/m 12,9 km/h (3 Bft) 97,87 %
29.09.2020 21:12 12,3 C 11,1 C 10,6 C 93 % 1017,3 hPa 0,0 l/m 0 min 0 min 0 W/m 6,4 km/h (2 Bft) 97,83 %
29.09.2020 21:14 12,3 C 11,1 C 10,6 C 93 % 1017,4 hPa 0,0 l/m 0 min 0 min 0 W/m 3,2 km/h (1 Bft) 100,00 %
29.09.2020 21:16 12,3 C 11,1 C 10,6 C 94 % 1017,3 hPa 0,0 l/m 0 min 0 min 0 W/m 12,9 km/h (3 Bft) 100,00 %
29.09.2020 21:18 12,3 C 11,1 C 10,6 C 93 % 1017,4 hPa 0,0 l/m 0 min 0 min 0 W/m 12,9 km/h (3 Bft) 100,00 %
29.09.2020 21:20 12,3 C 11,1 C 10,6 C 93 % 1017,4 hPa 0,0 l/m 0 min 0 min 0 W/m 12,9 km/h (3 Bft) 97,87 %
29.09.2020 21:22 12,3 C 11,1 C 10,6 C 94 % 1017,4 hPa 0,0 l/m 0 min 0 min 0 W/m 6,4 km/h (2 Bft) 97,87 %
29.09.2020 21:24 12,3 C 11,1 C 10,6 C 94 % 1017,4 hPa 0,0 l/m 0 min 0 min 0 W/m 16,1 km/h (3 Bft) 100,00 %
29.09.2020 21:26 12,2 C 11,1 C 10,6 C 94 % 1017,4 hPa 0,0 l/m 0 min 0 min 0 W/m 6,4 km/h (2 Bft) 100,00 %
29.09.2020 21:28 12,2 C 11,1 C 10,6 C 94 % 1017,4 hPa 0,0 l/m 0 min 0 min 0 W/m 6,4 km/h (2 Bft) 95,74 %
29.09.2020 21:30 12,2 C 11,1 C 10,6 C 94 % 1017,4 hPa 0,0 l/m 0 min 0 min 0 W/m 12,9 km/h (3 Bft) 100,00 %
29.09.2020 21:32 12,2 C 11,1 C 10,6 C 94 % 1017,4 hPa 0,0 l/m 0 min 0 min 0 W/m 6,4 km/h (2 Bft) 97,87 %
29.09.2020 21:34 12,2 C 11,1 C 10,6 C 94 % 1017,4 hPa 0,0 l/m 0 min 0 min 0 W/m 12,9 km/h (3 Bft) 100,00 %
29.09.2020 21:36 12,2 C 11,1 C 10,6 C 94 % 1017,5 hPa 0,0 l/m 0 min 0 min 0 W/m 6,4 km/h (2 Bft) 97,83 %
29.09.2020 21:38 12,2 C 11,1 C 10,6 C 94 % 1017,5 hPa 0,0 l/m 0 min 0 min 0 W/m 12,9 km/h (3 Bft) 100,00 %
29.09.2020 21:40 12,2 C 11,1 C 10,6 C 94 % 1017,5 hPa 0,0 l/m 0 min 0 min 0 W/m 6,4 km/h (2 Bft) 100,00 %
29.09.2020 21:42 12,2 C 11,1 C 10,6 C 94 % 1017,5 hPa 0,0 l/m 0 min 0 min 0 W/m 6,4 km/h (2 Bft) 100,00 %
29.09.2020 21:44 12,2 C 11,1 C 10,6 C 94 % 1017,4 hPa 0,0 l/m 0 min 0 min 0 W/m 6,4 km/h (2 Bft) 100,00 %
29.09.2020 21:46 12,2 C 11,1 C 10,6 C 94 % 1017,5 hPa 0,0 l/m 0 min 0 min 0 W/m 3,2 km/h (1 Bft) 100,00 %
29.09.2020 21:48 12,1 C 11,1 C 10,6 C 94 % 1017,5 hPa 0,0 l/m 0 min 0 min 0 W/m 12,9 km/h (3 Bft) 97,83 %
29.09.2020 21:50 12,1 C 11,1 C 10,6 C 94 % 1017,4 hPa 0,0 l/m 0 min 0 min 0 W/m 12,9 km/h (3 Bft) 100,00 %
29.09.2020 21:52 12,1 C 11,1 C 10,6 C 95 % 1017,5 hPa 0,0 l/m 0 min 0 min 0 W/m 3,2 km/h (1 Bft) 100,00 %
29.09.2020 21:54 12,1 C 11,1 C 10,6 C 94 % 1017,5 hPa 0,0 l/m 0 min 0 min 0 W/m 3,2 km/h (1 Bft) 100,00 %
29.09.2020 21:56 12,1 C 11,1 C 10,6 C 94 % 1017,5 hPa 0,0 l/m 0 min 0 min 0 W/m 12,9 km/h (3 Bft) 100,00 %
29.09.2020 21:58 12,1 C 11,1 C 10,6 C 95 % 1017,5 hPa 0,0 l/m 0 min 0 min 0 W/m 3,2 km/h (1 Bft) 95,12 %
29.09.2020 22:00 12,1 C 11,1 C 10,6 C 95 % 1017,5 hPa 0,0 l/m 0 min 0 min 0 W/m 6,4 km/h (2 Bft) 100,00 %
29.09.2020 22:02 12,1 C 11,1 C 10,6 C 95 % 1017,5 hPa 0,0 l/m 0 min 0 min 0 W/m 3,2 km/h (1 Bft) 97,87 %
29.09.2020 22:04 12,1 C 11,1 C 10,6 C 95 % 1017,6 hPa 0,0 l/m 0 min 0 min 0 W/m 6,4 km/h (2 Bft) 95,74 %
29.09.2020 22:06 12,1 C 11,1 C 10,6 C 95 % 1017,6 hPa 0,0 l/m 0 min 0 min 0 W/m 3,2 km/h (1 Bft) 97,87 %
29.09.2020 22:08 12,1 C 11,1 C 10,6 C 95 % 1017,6 hPa 0,0 l/m 0 min 0 min 0 W/m 6,4 km/h (2 Bft) 97,87 %
29.09.2020 22:10 12,0 C 11,1 C 10,6 C 95 % 1017,6 hPa 0,0 l/m 0 min 0 min 0 W/m 12,9 km/h (3 Bft) 97,87 %
29.09.2020 22:12 12,0 C 11,1 C 10,6 C 95 % 1017,6 hPa 0,0 l/m 0 min 0 min 0 W/m 0,0 km/h (0 Bft) 95,65 %
29.09.2020 22:14 12,0 C 11,1 C 10,6 C 95 % 1017,6 hPa 0,0 l/m 0 min 0 min 0 W/m 3,2 km/h (1 Bft) 97,87 %
29.09.2020 22:16 12,0 C 11,1 C 10,6 C 95 % 1017,6 hPa 0,0 l/m 0 min 0 min 0 W/m 3,2 km/h (1 Bft) 95,74 %
29.09.2020 22:18 12,0 C 11,1 C 10,6 C 95 % 1017,6 hPa 0,0 l/m 0 min 0 min 0 W/m 6,4 km/h (2 Bft) 93,62 %
29.09.2020 22:20 12,0 C 11,1 C 10,6 C 95 % 1017,6 hPa 0,0 l/m 0 min 0 min 0 W/m 6,4 km/h (2 Bft) 93,62 %
29.09.2020 22:22 12,0 C 11,1 C 10,6 C 95 % 1017,6 hPa 0,0 l/m 0 min 0 min 0 W/m 3,2 km/h (1 Bft) 93,62 %
29.09.2020 22:24 12,0 C 11,1 C 10,6 C 95 % 1017,6 hPa 0,0 l/m 0 min 0 min 0 W/m 3,2 km/h (1 Bft) 95,65 %
29.09.2020 22:26 12,0 C 11,1 C 10,6 C 95 % 1017,6 hPa 0,0 l/m 0 min 0 min 0 W/m 6,4 km/h (2 Bft) 95,74 %
29.09.2020 22:28 12,0 C 11,1 C 10,6 C 95 % 1017,6 hPa 0,0 l/m 0 min 0 min 0 W/m 6,4 km/h (2 Bft) 95,74 %
29.09.2020 22:30 12,0 C 11,1 C 10,6 C 96 % 1017,6 hPa 0,0 l/m 0 min 0 min 0 W/m 6,4 km/h (2 Bft) 95,74 %
29.09.2020 22:32 12,0 C 11,1 C 10,6 C 96 % 1017,6 hPa 0,0 l/m 0 min 0 min 0 W/m 6,4 km/h (2 Bft) 95,74 %
29.09.2020 22:34 12,0 C 11,1 C 10,6 C 96 % 1017,6 hPa 0,0 l/m 0 min 0 min 0 W/m 6,4 km/h (2 Bft) 93,62 %
29.09.2020 22:36 12,0 C 11,1 C 10,6 C 96 % 1017,6 hPa 0,0 l/m 0 min 0 min 0 W/m 9,7 km/h (2 Bft) 95,65 %
29.09.2020 22:38 12,0 C 11,1 C 10,6 C 96 % 1017,6 hPa 0,0 l/m 0 min 0 min 0 W/m 12,9 km/h (3 Bft) 93,62 %
29.09.2020 22:40 12,0 C 11,1 C 10,6 C 96 % 1017,6 hPa 0,0 l/m 0 min 0 min 0 W/m 6,4 km/h (2 Bft) 95,74 %
29.09.2020 22:42 12,0 C 11,1 C 10,6 C 96 % 1017,7 hPa 0,0 l/m 0 min 0 min 0 W/m 6,4 km/h (2 Bft) 95,74 %
29.09.2020 22:44 12,1 C 11,1 C 10,6 C 96 % 1017,6 hPa 0,0 l/m 0 min 0 min 0 W/m 0,0 km/h (0 Bft) 97,87 %
29.09.2020 22:46 12,1 C 11,1 C 10,6 C 96 % 1017,6 hPa 0,0 l/m 0 min 0 min 0 W/m 3,2 km/h (1 Bft) 97,87 %
29.09.2020 22:48 12,1 C 11,1 C 10,6 C 96 % 1017,6 hPa 0,0 l/m 0 min 0 min 0 W/m 3,2 km/h (1 Bft) 97,83 %
29.09.2020 22:50 12,1 C 11,1 C 10,6 C 96 % 1017,6 hPa 0,0 l/m 0 min 0 min 0 W/m 3,2 km/h (1 Bft) 96,08 %
29.09.2020 22:52 12,1 C 11,1 C 10,6 C 96 % 1017,6 hPa 0,0 l/m 0 min 0 min 0 W/m 3,2 km/h (1 Bft) 97,83 %
29.09.2020 22:54 12,1 C 11,1 C 10,6 C 96 % 1017,6 hPa 0,0 l/m 0 min 0 min 0 W/m 12,9 km/h (3 Bft) 95,74 %
29.09.2020 22:56 12,1 C 11,1 C 10,6 C 96 % 1017,6 hPa 0,0 l/m 0 min 0 min 0 W/m 3,2 km/h (1 Bft) 97,87 %
29.09.2020 22:58 12,1 C 11,7 C 10,6 C 96 % 1017,5 hPa 0,0 l/m 0 min 0 min 0 W/m 6,4 km/h (2 Bft) 97,87 %
29.09.2020 23:00 12,1 C 11,7 C 10,6 C 96 % 1017,5 hPa 0,0 l/m 0 min 0 min 0 W/m 3,2 km/h (1 Bft) 95,74 %
29.09.2020 23:02 12,1 C 11,7 C 10,6 C 96 % 1017,5 hPa 0,0 l/m 0 min 0 min 0 W/m 3,2 km/h (1 Bft) 97,87 %
29.09.2020 23:04 12,1 C 11,7 C 10,6 C 96 % 1017,5 hPa 0,0 l/m 0 min 0 min 0 W/m 12,9 km/h (3 Bft) 100,00 %
29.09.2020 23:06 12,1 C 11,7 C 11,1 C 96 % 1017,6 hPa 0,0 l/m 0 min 0 min 0 W/m 16,1 km/h (3 Bft) 100,00 %
29.09.2020 23:08 12,1 C 11,7 C 10,6 C 97 % 1017,5 hPa 0,0 l/m 0 min 0 min 0 W/m 6,4 km/h (2 Bft) 100,00 %
29.09.2020 23:10 12,1 C 11,7 C 10,6 C 97 % 1017,5 hPa 0,0 l/m 0 min 0 min 0 W/m 0,0 km/h (0 Bft) 97,87 %
29.09.2020 23:12 12,1 C 11,7 C 10,6 C 97 % 1017,5 hPa 0,0 l/m 0 min 0 min 0 W/m 0,0 km/h (0 Bft) 97,87 %
29.09.2020 23:14 12,2 C 11,7 C 11,1 C 97 % 1017,5 hPa 0,0 l/m 0 min 0 min 0 W/m 6,4 km/h (2 Bft) 97,87 %
29.09.2020 23:16 12,2 C 11,7 C 10,6 C 97 % 1017,5 hPa 0,0 l/m 0 min 0 min 0 W/m 6,4 km/h (2 Bft) 100,00 %
29.09.2020 23:18 12,2 C 11,7 C 10,6 C 97 % 1017,5 hPa 0,0 l/m 0 min 0 min 0 W/m 3,2 km/h (1 Bft) 97,87 %
29.09.2020 23:20 12,2 C 11,7 C 11,1 C 97 % 1017,6 hPa 0,0 l/m 0 min 0 min 0 W/m 6,4 km/h (2 Bft) 95,74 %
29.09.2020 23:22 12,2 C 11,7 C 11,1 C 97 % 1017,5 hPa 0,0 l/m 0 min 0 min 0 W/m 6,4 km/h (2 Bft) 100,00 %
29.09.2020 23:24 12,2 C 11,7 C 11,1 C 97 % 1017,5 hPa 0,0 l/m 0 min 0 min 0 W/m 3,2 km/h (1 Bft) 100,00 %
29.09.2020 23:26 12,2 C 11,7 C 11,1 C 97 % 1017,5 hPa 0,0 l/m 0 min 0 min 0 W/m 3,2 km/h (1 Bft) 100,00 %
29.09.2020 23:28 12,2 C 11,7 C 11,1 C 97 % 1017,4 hPa 0,0 l/m 0 min 0 min 0 W/m 3,2 km/h (1 Bft) 100,00 %
29.09.2020 23:30 12,2 C 11,7 C 11,1 C 97 % 1017,4 hPa 0,0 l/m 0 min 0 min 0 W/m 3,2 km/h (1 Bft) 100,00 %
29.09.2020 23:32 12,2 C 11,7 C 11,1 C 97 % 1017,4 hPa 0,0 l/m 0 min 0 min 0 W/m 6,4 km/h (2 Bft) 100,00 %
29.09.2020 23:34 12,2 C 11,7 C 11,1 C 97 % 1017,4 hPa 0,0 l/m 0 min 0 min 0 W/m 3,2 km/h (1 Bft) 100,00 %
29.09.2020 23:36 12,2 C 11,7 C 11,1 C 97 % 1017,4 hPa 0,0 l/m 0 min 0 min 0 W/m 3,2 km/h (1 Bft) 100,00 %
29.09.2020 23:38 12,2 C 11,7 C 11,1 C 97 % 1017,4 hPa 0,0 l/m 0 min 0 min 0 W/m 6,4 km/h (2 Bft) 100,00 %
29.09.2020 23:40 12,2 C 11,7 C 11,1 C 97 % 1017,3 hPa 0,0 l/m 0 min 0 min 0 W/m 0,0 km/h (0 Bft) 100,00 %
29.09.2020 23:42 12,2 C 11,7 C 11,1 C 97 % 1017,4 hPa 0,0 l/m 0 min 0 min 0 W/m 12,9 km/h (3 Bft) 100,00 %
29.09.2020 23:44 12,2 C 11,7 C 11,1 C 97 % 1017,4 hPa 0,0 l/m 0 min 0 min 0 W/m 0,0 km/h (0 Bft) 100,00 %
29.09.2020 23:46 12,2 C 11,7 C 11,1 C 97 % 1017,4 hPa 0,0 l/m 0 min 0 min 0 W/m 0,0 km/h (0 Bft) 100,00 %
29.09.2020 23:48 12,2 C 11,7 C 11,1 C 97 % 1017,3 hPa 0,0 l/m 0 min 0 min 0 W/m 0,0 km/h (0 Bft) 97,87 %
29.09.2020 23:50 12,2 C 11,7 C 11,1 C 97 % 1017,3 hPa 0,0 l/m 0 min 0 min 0 W/m 3,2 km/h (1 Bft) 100,00 %
29.09.2020 23:52 12,2 C 11,7 C 11,1 C 97 % 1017,3 hPa 0,0 l/m 0 min 0 min 0 W/m 3,2 km/h (1 Bft) 95,74 %
29.09.2020 23:54 12,2 C 11,7 C 11,1 C 97 % 1017,3 hPa 0,0 l/m 0 min 0 min 0 W/m 0,0 km/h (0 Bft) 97,87 %
29.09.2020 23:56 12,3 C 11,7 C 11,1 C 97 % 1017,3 hPa 0,0 l/m 0 min 0 min 0 W/m 0,0 km/h (0 Bft) 97,87 %
29.09.2020 23:58 12,3 C 11,7 C 11,1 C 97 % 1017,3 hPa 0,0 l/m 0 min 0 min 0 W/m 3,2 km/h (1 Bft) 97,83 %
_ Min-Zeit 05:26 05:20 04:51 17:32 01:04 - - - - 00:04 11:24
Minimum _ 10,9 C 9,4 C 9,4 C 85 % 1012,7 hPa - - - - 0,0 km/h (0 Bft) 55,32 %
_ Max-Zeit 17:12 16:32 17:00 12:12 22:42 06:22 15:10 12:08 16:32 14:12 00:20
Maximum _ 17,4 C 22,2 C 15,6 C 100 % 1017,7 hPa 0,2 l/m 2 min 4 min 443 W/m 19,3 km/h
S-SO (3 Bft)
100,00 %
Durchschnitt _ 12,7 C 12,1 C 11,2 C 95 % 1015,5 hPa #4,8 l/m #1:08 h #3:16 h 93 W/m 4,2 km/h (1 Bft) 97,44 %
© 2020 W. Hausmann